<?xml version="1.0" encoding="UTF-8" standalone="no" ?>
<gpx xmlns="http://www.topografix.com/GPX/1/1" xmlns:xsi="http://www.w3.org/2001/XMLSchema-instance" xsi:schemaLocation="http://www.topografix.com/GPX/1/1 http://www.topografix.com/GPX/1/1/gpx.xsd" version="1.1" creator="VisuGPX - https://www.visugpx.com">
  <metadata>
    <name>Trail : Pas de la Clé</name>
    <desc><![CDATA[But !! Trop de neige ds le pas de la Clé...]]></desc>
  </metadata>
  <trk>
    <name><![CDATA[2012-03-31-01]]></name>
    <trkseg>
      <trkpt lat="45.2483" lon="5.55164">
        <ele>925</ele>
        <time>2012-03-31T08:58:53Z</time>
      </trkpt>
      <trkpt lat="45.24823" lon="5.55172">
        <ele>917</ele>
        <time>2012-03-31T09:00:02Z</time>
      </trkpt>
      <trkpt lat="45.24822" lon="5.55173">
        <ele>917</ele>
        <time>2012-03-31T09:00:03Z</time>
      </trkpt>
      <trkpt lat="45.24811" lon="5.55184">
        <ele>913</ele>
        <time>2012-03-31T09:00:10Z</time>
      </trkpt>
      <trkpt lat="45.24803" lon="5.55188">
        <ele>914</ele>
        <time>2012-03-31T09:00:13Z</time>
      </trkpt>
      <trkpt lat="45.24795" lon="5.55192">
        <ele>917</ele>
        <time>2012-03-31T09:00:17Z</time>
      </trkpt>
      <trkpt lat="45.2479" lon="5.55202">
        <ele>920</ele>
        <time>2012-03-31T09:00:22Z</time>
      </trkpt>
      <trkpt lat="45.24786" lon="5.55213">
        <ele>926</ele>
        <time>2012-03-31T09:00:27Z</time>
      </trkpt>
      <trkpt lat="45.24781" lon="5.55221">
        <ele>927</ele>
        <time>2012-03-31T09:00:30Z</time>
      </trkpt>
      <trkpt lat="45.24775" lon="5.55228">
        <ele>927</ele>
        <time>2012-03-31T09:00:33Z</time>
      </trkpt>
      <trkpt lat="45.24768" lon="5.5523">
        <ele>926</ele>
        <time>2012-03-31T09:00:36Z</time>
      </trkpt>
      <trkpt lat="45.2476" lon="5.55227">
        <ele>927</ele>
        <time>2012-03-31T09:00:39Z</time>
      </trkpt>
      <trkpt lat="45.24754" lon="5.55222">
        <ele>928</ele>
        <time>2012-03-31T09:00:42Z</time>
      </trkpt>
      <trkpt lat="45.24746" lon="5.55216">
        <ele>927</ele>
        <time>2012-03-31T09:00:46Z</time>
      </trkpt>
      <trkpt lat="45.2474" lon="5.55209">
        <ele>928</ele>
        <time>2012-03-31T09:00:50Z</time>
      </trkpt>
      <trkpt lat="45.24734" lon="5.55203">
        <ele>931</ele>
        <time>2012-03-31T09:00:55Z</time>
      </trkpt>
      <trkpt lat="45.24728" lon="5.55197">
        <ele>932</ele>
        <time>2012-03-31T09:00:59Z</time>
      </trkpt>
      <trkpt lat="45.2472" lon="5.55195">
        <ele>935</ele>
        <time>2012-03-31T09:01:03Z</time>
      </trkpt>
      <trkpt lat="45.24718" lon="5.55194">
        <ele>936</ele>
        <time>2012-03-31T09:01:04Z</time>
      </trkpt>
      <trkpt lat="45.24702" lon="5.55192">
        <ele>953</ele>
        <time>2012-03-31T09:01:19Z</time>
      </trkpt>
      <trkpt lat="45.24695" lon="5.55191">
        <ele>954</ele>
        <time>2012-03-31T09:01:23Z</time>
      </trkpt>
      <trkpt lat="45.24686" lon="5.55188">
        <ele>952</ele>
        <time>2012-03-31T09:01:26Z</time>
      </trkpt>
      <trkpt lat="45.24678" lon="5.55191">
        <ele>949</ele>
        <time>2012-03-31T09:01:34Z</time>
      </trkpt>
      <trkpt lat="45.24671" lon="5.55196">
        <ele>952</ele>
        <time>2012-03-31T09:01:41Z</time>
      </trkpt>
      <trkpt lat="45.24663" lon="5.552">
        <ele>956</ele>
        <time>2012-03-31T09:01:48Z</time>
      </trkpt>
      <trkpt lat="45.24656" lon="5.55194">
        <ele>957</ele>
        <time>2012-03-31T09:01:57Z</time>
      </trkpt>
      <trkpt lat="45.24648" lon="5.55196">
        <ele>953</ele>
        <time>2012-03-31T09:02:01Z</time>
      </trkpt>
      <trkpt lat="45.24639" lon="5.55198">
        <ele>955</ele>
        <time>2012-03-31T09:02:06Z</time>
      </trkpt>
      <trkpt lat="45.24638" lon="5.55198">
        <ele>954</ele>
        <time>2012-03-31T09:02:07Z</time>
      </trkpt>
      <trkpt lat="45.24622" lon="5.55195">
        <ele>960</ele>
        <time>2012-03-31T09:02:18Z</time>
      </trkpt>
      <trkpt lat="45.24614" lon="5.55194">
        <ele>969</ele>
        <time>2012-03-31T09:02:25Z</time>
      </trkpt>
      <trkpt lat="45.24609" lon="5.55197">
        <ele>970</ele>
        <time>2012-03-31T09:02:29Z</time>
      </trkpt>
      <trkpt lat="45.24601" lon="5.55198">
        <ele>964</ele>
        <time>2012-03-31T09:02:31Z</time>
      </trkpt>
      <trkpt lat="45.24593" lon="5.55199">
        <ele>961</ele>
        <time>2012-03-31T09:02:33Z</time>
      </trkpt>
      <trkpt lat="45.24586" lon="5.55199">
        <ele>961</ele>
        <time>2012-03-31T09:02:35Z</time>
      </trkpt>
      <trkpt lat="45.24578" lon="5.55199">
        <ele>960</ele>
        <time>2012-03-31T09:02:39Z</time>
      </trkpt>
      <trkpt lat="45.24572" lon="5.55208">
        <ele>965</ele>
        <time>2012-03-31T09:02:55Z</time>
      </trkpt>
      <trkpt lat="45.24564" lon="5.55209">
        <ele>964</ele>
        <time>2012-03-31T09:02:59Z</time>
      </trkpt>
      <trkpt lat="45.24556" lon="5.55209">
        <ele>966</ele>
        <time>2012-03-31T09:03:03Z</time>
      </trkpt>
      <trkpt lat="45.24551" lon="5.55218">
        <ele>979</ele>
        <time>2012-03-31T09:03:12Z</time>
      </trkpt>
      <trkpt lat="45.24548" lon="5.55217">
        <ele>976</ele>
        <time>2012-03-31T09:03:13Z</time>
      </trkpt>
      <trkpt lat="45.24537" lon="5.55218">
        <ele>974</ele>
        <time>2012-03-31T09:03:17Z</time>
      </trkpt>
      <trkpt lat="45.24531" lon="5.55219">
        <ele>975</ele>
        <time>2012-03-31T09:03:19Z</time>
      </trkpt>
      <trkpt lat="45.24522" lon="5.55219">
        <ele>975</ele>
        <time>2012-03-31T09:03:23Z</time>
      </trkpt>
      <trkpt lat="45.24514" lon="5.55222">
        <ele>977</ele>
        <time>2012-03-31T09:03:29Z</time>
      </trkpt>
      <trkpt lat="45.24505" lon="5.55225">
        <ele>985</ele>
        <time>2012-03-31T09:03:43Z</time>
      </trkpt>
      <trkpt lat="45.24498" lon="5.55229">
        <ele>977</ele>
        <time>2012-03-31T09:03:49Z</time>
      </trkpt>
      <trkpt lat="45.2449" lon="5.55231">
        <ele>980</ele>
        <time>2012-03-31T09:03:54Z</time>
      </trkpt>
      <trkpt lat="45.24481" lon="5.55229">
        <ele>1000</ele>
        <time>2012-03-31T09:04:11Z</time>
      </trkpt>
      <trkpt lat="45.24474" lon="5.5523">
        <ele>1005</ele>
        <time>2012-03-31T09:04:19Z</time>
      </trkpt>
      <trkpt lat="45.24471" lon="5.55231">
        <ele>1004</ele>
        <time>2012-03-31T09:04:20Z</time>
      </trkpt>
      <trkpt lat="45.24457" lon="5.55231">
        <ele>1015</ele>
        <time>2012-03-31T09:04:34Z</time>
      </trkpt>
      <trkpt lat="45.24449" lon="5.55235">
        <ele>1013</ele>
        <time>2012-03-31T09:04:43Z</time>
      </trkpt>
      <trkpt lat="45.24441" lon="5.55238">
        <ele>1012</ele>
        <time>2012-03-31T09:04:49Z</time>
      </trkpt>
      <trkpt lat="45.24433" lon="5.55241">
        <ele>1017</ele>
        <time>2012-03-31T09:05:00Z</time>
      </trkpt>
      <trkpt lat="45.24425" lon="5.55241">
        <ele>1017</ele>
        <time>2012-03-31T09:05:06Z</time>
      </trkpt>
      <trkpt lat="45.24416" lon="5.55245">
        <ele>1020</ele>
        <time>2012-03-31T09:05:13Z</time>
      </trkpt>
      <trkpt lat="45.2441" lon="5.55252">
        <ele>1031</ele>
        <time>2012-03-31T09:05:27Z</time>
      </trkpt>
      <trkpt lat="45.24408" lon="5.55253">
        <ele>1032</ele>
        <time>2012-03-31T09:05:28Z</time>
      </trkpt>
      <trkpt lat="45.24394" lon="5.55254">
        <ele>1032</ele>
        <time>2012-03-31T09:05:38Z</time>
      </trkpt>
      <trkpt lat="45.24387" lon="5.55254">
        <ele>1033</ele>
        <time>2012-03-31T09:05:43Z</time>
      </trkpt>
      <trkpt lat="45.24381" lon="5.55262">
        <ele>1031</ele>
        <time>2012-03-31T09:05:47Z</time>
      </trkpt>
      <trkpt lat="45.24377" lon="5.55272">
        <ele>1033</ele>
        <time>2012-03-31T09:05:55Z</time>
      </trkpt>
      <trkpt lat="45.24369" lon="5.55276">
        <ele>1031</ele>
        <time>2012-03-31T09:06:02Z</time>
      </trkpt>
      <trkpt lat="45.24361" lon="5.55278">
        <ele>1041</ele>
        <time>2012-03-31T09:06:11Z</time>
      </trkpt>
      <trkpt lat="45.24352" lon="5.55279">
        <ele>1070</ele>
        <time>2012-03-31T09:06:44Z</time>
      </trkpt>
      <trkpt lat="45.24351" lon="5.55278">
        <ele>1070</ele>
        <time>2012-03-31T09:06:45Z</time>
      </trkpt>
      <trkpt lat="45.24335" lon="5.55276">
        <ele>1071</ele>
        <time>2012-03-31T09:06:57Z</time>
      </trkpt>
      <trkpt lat="45.24331" lon="5.55266">
        <ele>1063</ele>
        <time>2012-03-31T09:07:03Z</time>
      </trkpt>
      <trkpt lat="45.2433" lon="5.55255">
        <ele>1061</ele>
        <time>2012-03-31T09:07:11Z</time>
      </trkpt>
      <trkpt lat="45.24324" lon="5.55247">
        <ele>1057</ele>
        <time>2012-03-31T09:07:18Z</time>
      </trkpt>
      <trkpt lat="45.24323" lon="5.55235">
        <ele>1057</ele>
        <time>2012-03-31T09:07:32Z</time>
      </trkpt>
      <trkpt lat="45.2432" lon="5.55225">
        <ele>1057</ele>
        <time>2012-03-31T09:07:38Z</time>
      </trkpt>
      <trkpt lat="45.24312" lon="5.55226">
        <ele>1064</ele>
        <time>2012-03-31T09:07:59Z</time>
      </trkpt>
      <trkpt lat="45.24309" lon="5.55228">
        <ele>1065</ele>
        <time>2012-03-31T09:08:00Z</time>
      </trkpt>
      <trkpt lat="45.24297" lon="5.55235">
        <ele>1067</ele>
        <time>2012-03-31T09:08:10Z</time>
      </trkpt>
      <trkpt lat="45.24291" lon="5.55241">
        <ele>1070</ele>
        <time>2012-03-31T09:08:19Z</time>
      </trkpt>
      <trkpt lat="45.24289" lon="5.55253">
        <ele>1073</ele>
        <time>2012-03-31T09:08:25Z</time>
      </trkpt>
      <trkpt lat="45.24285" lon="5.55263">
        <ele>1079</ele>
        <time>2012-03-31T09:08:33Z</time>
      </trkpt>
      <trkpt lat="45.2428" lon="5.55274">
        <ele>1083</ele>
        <time>2012-03-31T09:08:43Z</time>
      </trkpt>
      <trkpt lat="45.24275" lon="5.55281">
        <ele>1080</ele>
        <time>2012-03-31T09:08:50Z</time>
      </trkpt>
      <trkpt lat="45.24267" lon="5.55285">
        <ele>1081</ele>
        <time>2012-03-31T09:08:56Z</time>
      </trkpt>
      <trkpt lat="45.24259" lon="5.55286">
        <ele>1080</ele>
        <time>2012-03-31T09:09:00Z</time>
      </trkpt>
      <trkpt lat="45.24258" lon="5.55287">
        <ele>1080</ele>
        <time>2012-03-31T09:09:01Z</time>
      </trkpt>
      <trkpt lat="45.24247" lon="5.55303">
        <ele>1076</ele>
        <time>2012-03-31T09:09:12Z</time>
      </trkpt>
      <trkpt lat="45.24247" lon="5.55314">
        <ele>1077</ele>
        <time>2012-03-31T09:09:19Z</time>
      </trkpt>
      <trkpt lat="45.24243" lon="5.55324">
        <ele>1083</ele>
        <time>2012-03-31T09:09:26Z</time>
      </trkpt>
      <trkpt lat="45.24236" lon="5.55333">
        <ele>1094</ele>
        <time>2012-03-31T09:09:43Z</time>
      </trkpt>
      <trkpt lat="45.24233" lon="5.55343">
        <ele>1096</ele>
        <time>2012-03-31T09:09:51Z</time>
      </trkpt>
      <trkpt lat="45.24228" lon="5.55351">
        <ele>1100</ele>
        <time>2012-03-31T09:10:04Z</time>
      </trkpt>
      <trkpt lat="45.24226" lon="5.55352">
        <ele>1098</ele>
        <time>2012-03-31T09:10:06Z</time>
      </trkpt>
      <trkpt lat="45.24216" lon="5.55364">
        <ele>1093</ele>
        <time>2012-03-31T09:10:20Z</time>
      </trkpt>
      <trkpt lat="45.24209" lon="5.55367">
        <ele>1092</ele>
        <time>2012-03-31T09:10:26Z</time>
      </trkpt>
      <trkpt lat="45.24204" lon="5.55377">
        <ele>1091</ele>
        <time>2012-03-31T09:10:32Z</time>
      </trkpt>
      <trkpt lat="45.242" lon="5.55387">
        <ele>1090</ele>
        <time>2012-03-31T09:10:38Z</time>
      </trkpt>
      <trkpt lat="45.24194" lon="5.55396">
        <ele>1098</ele>
        <time>2012-03-31T09:10:50Z</time>
      </trkpt>
      <trkpt lat="45.24194" lon="5.55408">
        <ele>1117</ele>
        <time>2012-03-31T09:11:13Z</time>
      </trkpt>
      <trkpt lat="45.24196" lon="5.55409">
        <ele>1117</ele>
        <time>2012-03-31T09:11:14Z</time>
      </trkpt>
      <trkpt lat="45.24198" lon="5.5543">
        <ele>1119</ele>
        <time>2012-03-31T09:11:26Z</time>
      </trkpt>
      <trkpt lat="45.24197" lon="5.5544">
        <ele>1119</ele>
        <time>2012-03-31T09:11:31Z</time>
      </trkpt>
      <trkpt lat="45.24196" lon="5.55452">
        <ele>1123</ele>
        <time>2012-03-31T09:11:39Z</time>
      </trkpt>
      <trkpt lat="45.24193" lon="5.55463">
        <ele>1122</ele>
        <time>2012-03-31T09:11:47Z</time>
      </trkpt>
      <trkpt lat="45.24196" lon="5.55475">
        <ele>1124</ele>
        <time>2012-03-31T09:11:57Z</time>
      </trkpt>
      <trkpt lat="45.24192" lon="5.55485">
        <ele>1122</ele>
        <time>2012-03-31T09:12:04Z</time>
      </trkpt>
      <trkpt lat="45.24184" lon="5.5549">
        <ele>1130</ele>
        <time>2012-03-31T09:12:24Z</time>
      </trkpt>
      <trkpt lat="45.24184" lon="5.55491">
        <ele>1130</ele>
        <time>2012-03-31T09:12:25Z</time>
      </trkpt>
      <trkpt lat="45.24181" lon="5.55512">
        <ele>1127</ele>
        <time>2012-03-31T09:12:42Z</time>
      </trkpt>
      <trkpt lat="45.24172" lon="5.55512">
        <ele>1128</ele>
        <time>2012-03-31T09:12:46Z</time>
      </trkpt>
      <trkpt lat="45.24177" lon="5.55522">
        <ele>1129</ele>
        <time>2012-03-31T09:13:00Z</time>
      </trkpt>
      <trkpt lat="45.24182" lon="5.5553">
        <ele>1131</ele>
        <time>2012-03-31T09:13:04Z</time>
      </trkpt>
      <trkpt lat="45.2419" lon="5.55536">
        <ele>1140</ele>
        <time>2012-03-31T09:13:30Z</time>
      </trkpt>
      <trkpt lat="45.24192" lon="5.55535">
        <ele>1141</ele>
        <time>2012-03-31T09:13:31Z</time>
      </trkpt>
      <trkpt lat="45.24205" lon="5.55529">
        <ele>1145</ele>
        <time>2012-03-31T09:13:47Z</time>
      </trkpt>
      <trkpt lat="45.24213" lon="5.5553">
        <ele>1147</ele>
        <time>2012-03-31T09:13:51Z</time>
      </trkpt>
      <trkpt lat="45.24222" lon="5.55533">
        <ele>1146</ele>
        <time>2012-03-31T09:13:58Z</time>
      </trkpt>
      <trkpt lat="45.24228" lon="5.55541">
        <ele>1145</ele>
        <time>2012-03-31T09:14:07Z</time>
      </trkpt>
      <trkpt lat="45.24235" lon="5.55547">
        <ele>1145</ele>
        <time>2012-03-31T09:14:19Z</time>
      </trkpt>
      <trkpt lat="45.24236" lon="5.55559">
        <ele>1141</ele>
        <time>2012-03-31T09:14:25Z</time>
      </trkpt>
      <trkpt lat="45.24237" lon="5.5557">
        <ele>1136</ele>
        <time>2012-03-31T09:14:34Z</time>
      </trkpt>
      <trkpt lat="45.24237" lon="5.55572">
        <ele>1136</ele>
        <time>2012-03-31T09:14:34Z</time>
      </trkpt>
      <trkpt lat="45.24242" lon="5.55593">
        <ele>1149</ele>
        <time>2012-03-31T09:15:02Z</time>
      </trkpt>
      <trkpt lat="45.24242" lon="5.55606">
        <ele>1150</ele>
        <time>2012-03-31T09:15:11Z</time>
      </trkpt>
      <trkpt lat="45.24233" lon="5.55604">
        <ele>1160</ele>
        <time>2012-03-31T09:15:31Z</time>
      </trkpt>
      <trkpt lat="45.24227" lon="5.55613">
        <ele>1177</ele>
        <time>2012-03-31T09:15:51Z</time>
      </trkpt>
      <trkpt lat="45.24226" lon="5.55614">
        <ele>1177</ele>
        <time>2012-03-31T09:15:52Z</time>
      </trkpt>
      <trkpt lat="45.24216" lon="5.55629">
        <ele>1176</ele>
        <time>2012-03-31T09:16:02Z</time>
      </trkpt>
      <trkpt lat="45.24214" lon="5.55638">
        <ele>1178</ele>
        <time>2012-03-31T09:16:05Z</time>
      </trkpt>
      <trkpt lat="45.24212" lon="5.55649">
        <ele>1178</ele>
        <time>2012-03-31T09:16:09Z</time>
      </trkpt>
      <trkpt lat="45.24209" lon="5.55661">
        <ele>1181</ele>
        <time>2012-03-31T09:16:13Z</time>
      </trkpt>
      <trkpt lat="45.2421" lon="5.55671">
        <ele>1183</ele>
        <time>2012-03-31T09:16:17Z</time>
      </trkpt>
      <trkpt lat="45.24208" lon="5.55682">
        <ele>1179</ele>
        <time>2012-03-31T09:16:19Z</time>
      </trkpt>
      <trkpt lat="45.24204" lon="5.5569">
        <ele>1178</ele>
        <time>2012-03-31T09:16:21Z</time>
      </trkpt>
      <trkpt lat="45.242" lon="5.557">
        <ele>1177</ele>
        <time>2012-03-31T09:16:24Z</time>
      </trkpt>
      <trkpt lat="45.24196" lon="5.5571">
        <ele>1176</ele>
        <time>2012-03-31T09:16:27Z</time>
      </trkpt>
      <trkpt lat="45.24191" lon="5.5572">
        <ele>1175</ele>
        <time>2012-03-31T09:16:31Z</time>
      </trkpt>
      <trkpt lat="45.24187" lon="5.55729">
        <ele>1179</ele>
        <time>2012-03-31T09:16:34Z</time>
      </trkpt>
      <trkpt lat="45.24186" lon="5.55738">
        <ele>1182</ele>
        <time>2012-03-31T09:16:36Z</time>
      </trkpt>
      <trkpt lat="45.24184" lon="5.55748">
        <ele>1182</ele>
        <time>2012-03-31T09:16:39Z</time>
      </trkpt>
      <trkpt lat="45.24182" lon="5.55758">
        <ele>1185</ele>
        <time>2012-03-31T09:16:43Z</time>
      </trkpt>
      <trkpt lat="45.24177" lon="5.55768">
        <ele>1186</ele>
        <time>2012-03-31T09:16:47Z</time>
      </trkpt>
      <trkpt lat="45.24172" lon="5.55779">
        <ele>1190</ele>
        <time>2012-03-31T09:16:51Z</time>
      </trkpt>
      <trkpt lat="45.24173" lon="5.55789">
        <ele>1199</ele>
        <time>2012-03-31T09:16:54Z</time>
      </trkpt>
      <trkpt lat="45.24174" lon="5.55792">
        <ele>1199</ele>
        <time>2012-03-31T09:16:55Z</time>
      </trkpt>
      <trkpt lat="45.24172" lon="5.55808">
        <ele>1199</ele>
        <time>2012-03-31T09:17:00Z</time>
      </trkpt>
      <trkpt lat="45.24168" lon="5.55817">
        <ele>1201</ele>
        <time>2012-03-31T09:17:03Z</time>
      </trkpt>
      <trkpt lat="45.24163" lon="5.55828">
        <ele>1197</ele>
        <time>2012-03-31T09:17:06Z</time>
      </trkpt>
      <trkpt lat="45.24157" lon="5.55836">
        <ele>1201</ele>
        <time>2012-03-31T09:17:11Z</time>
      </trkpt>
      <trkpt lat="45.24153" lon="5.55846">
        <ele>1194</ele>
        <time>2012-03-31T09:17:17Z</time>
      </trkpt>
      <trkpt lat="45.2415" lon="5.55855">
        <ele>1197</ele>
        <time>2012-03-31T09:17:21Z</time>
      </trkpt>
      <trkpt lat="45.2415" lon="5.55866">
        <ele>1196</ele>
        <time>2012-03-31T09:17:26Z</time>
      </trkpt>
      <trkpt lat="45.24151" lon="5.55878">
        <ele>1195</ele>
        <time>2012-03-31T09:17:29Z</time>
      </trkpt>
      <trkpt lat="45.24153" lon="5.55888">
        <ele>1194</ele>
        <time>2012-03-31T09:17:32Z</time>
      </trkpt>
      <trkpt lat="45.24153" lon="5.559">
        <ele>1191</ele>
        <time>2012-03-31T09:17:35Z</time>
      </trkpt>
      <trkpt lat="45.24151" lon="5.55912">
        <ele>1192</ele>
        <time>2012-03-31T09:17:40Z</time>
      </trkpt>
      <trkpt lat="45.24154" lon="5.55923">
        <ele>1196</ele>
        <time>2012-03-31T09:17:46Z</time>
      </trkpt>
      <trkpt lat="45.24159" lon="5.55934">
        <ele>1199</ele>
        <time>2012-03-31T09:17:52Z</time>
      </trkpt>
      <trkpt lat="45.2416" lon="5.55947">
        <ele>1197</ele>
        <time>2012-03-31T09:17:58Z</time>
      </trkpt>
      <trkpt lat="45.2416" lon="5.55948">
        <ele>1197</ele>
        <time>2012-03-31T09:17:59Z</time>
      </trkpt>
      <trkpt lat="45.24167" lon="5.55967">
        <ele>1198</ele>
        <time>2012-03-31T09:18:25Z</time>
      </trkpt>
      <trkpt lat="45.2417" lon="5.55979">
        <ele>1201</ele>
        <time>2012-03-31T09:18:33Z</time>
      </trkpt>
      <trkpt lat="45.24169" lon="5.55991">
        <ele>1202</ele>
        <time>2012-03-31T09:18:45Z</time>
      </trkpt>
      <trkpt lat="45.24173" lon="5.56002">
        <ele>1205</ele>
        <time>2012-03-31T09:18:50Z</time>
      </trkpt>
      <trkpt lat="45.24175" lon="5.56013">
        <ele>1213</ele>
        <time>2012-03-31T09:18:58Z</time>
      </trkpt>
      <trkpt lat="45.24178" lon="5.56025">
        <ele>1217</ele>
        <time>2012-03-31T09:19:08Z</time>
      </trkpt>
      <trkpt lat="45.24179" lon="5.56026">
        <ele>1217</ele>
        <time>2012-03-31T09:19:09Z</time>
      </trkpt>
      <trkpt lat="45.24193" lon="5.56033">
        <ele>1216</ele>
        <time>2012-03-31T09:19:27Z</time>
      </trkpt>
      <trkpt lat="45.24197" lon="5.56043">
        <ele>1209</ele>
        <time>2012-03-31T09:19:31Z</time>
      </trkpt>
      <trkpt lat="45.24205" lon="5.56046">
        <ele>1216</ele>
        <time>2012-03-31T09:19:41Z</time>
      </trkpt>
      <trkpt lat="45.24204" lon="5.56059">
        <ele>1214</ele>
        <time>2012-03-31T09:19:44Z</time>
      </trkpt>
      <trkpt lat="45.24207" lon="5.5607">
        <ele>1220</ele>
        <time>2012-03-31T09:19:48Z</time>
      </trkpt>
      <trkpt lat="45.24213" lon="5.56077">
        <ele>1225</ele>
        <time>2012-03-31T09:19:55Z</time>
      </trkpt>
      <trkpt lat="45.24214" lon="5.56089">
        <ele>1220</ele>
        <time>2012-03-31T09:20:01Z</time>
      </trkpt>
      <trkpt lat="45.2422" lon="5.56097">
        <ele>1234</ele>
        <time>2012-03-31T09:20:12Z</time>
      </trkpt>
      <trkpt lat="45.24221" lon="5.56098">
        <ele>1233</ele>
        <time>2012-03-31T09:20:13Z</time>
      </trkpt>
      <trkpt lat="45.24231" lon="5.56112">
        <ele>1236</ele>
        <time>2012-03-31T09:20:23Z</time>
      </trkpt>
      <trkpt lat="45.24238" lon="5.56119">
        <ele>1237</ele>
        <time>2012-03-31T09:20:26Z</time>
      </trkpt>
      <trkpt lat="45.24241" lon="5.5613">
        <ele>1242</ele>
        <time>2012-03-31T09:20:30Z</time>
      </trkpt>
      <trkpt lat="45.24245" lon="5.56139">
        <ele>1244</ele>
        <time>2012-03-31T09:20:44Z</time>
      </trkpt>
      <trkpt lat="45.24253" lon="5.56142">
        <ele>1246</ele>
        <time>2012-03-31T09:20:48Z</time>
      </trkpt>
      <trkpt lat="45.2426" lon="5.56144">
        <ele>1243</ele>
        <time>2012-03-31T09:20:51Z</time>
      </trkpt>
      <trkpt lat="45.24266" lon="5.56152">
        <ele>1242</ele>
        <time>2012-03-31T09:20:54Z</time>
      </trkpt>
      <trkpt lat="45.24271" lon="5.5616">
        <ele>1242</ele>
        <time>2012-03-31T09:20:58Z</time>
      </trkpt>
      <trkpt lat="45.24276" lon="5.56171">
        <ele>1248</ele>
        <time>2012-03-31T09:21:03Z</time>
      </trkpt>
      <trkpt lat="45.24279" lon="5.56182">
        <ele>1249</ele>
        <time>2012-03-31T09:21:14Z</time>
      </trkpt>
      <trkpt lat="45.2428" lon="5.56183">
        <ele>1253</ele>
        <time>2012-03-31T09:21:15Z</time>
      </trkpt>
      <trkpt lat="45.24284" lon="5.56203">
        <ele>1254</ele>
        <time>2012-03-31T09:21:35Z</time>
      </trkpt>
      <trkpt lat="45.24283" lon="5.56215">
        <ele>1252</ele>
        <time>2012-03-31T09:21:45Z</time>
      </trkpt>
      <trkpt lat="45.24282" lon="5.56227">
        <ele>1252</ele>
        <time>2012-03-31T09:21:50Z</time>
      </trkpt>
      <trkpt lat="45.24284" lon="5.56238">
        <ele>1248</ele>
        <time>2012-03-31T09:21:55Z</time>
      </trkpt>
      <trkpt lat="45.24283" lon="5.56251">
        <ele>1256</ele>
        <time>2012-03-31T09:22:05Z</time>
      </trkpt>
      <trkpt lat="45.24279" lon="5.5626">
        <ele>1255</ele>
        <time>2012-03-31T09:22:13Z</time>
      </trkpt>
      <trkpt lat="45.24274" lon="5.56268">
        <ele>1252</ele>
        <time>2012-03-31T09:22:18Z</time>
      </trkpt>
      <trkpt lat="45.24273" lon="5.5627">
        <ele>1252</ele>
        <time>2012-03-31T09:22:19Z</time>
      </trkpt>
      <trkpt lat="45.24268" lon="5.56285">
        <ele>1256</ele>
        <time>2012-03-31T09:22:28Z</time>
      </trkpt>
      <trkpt lat="45.24267" lon="5.56296">
        <ele>1259</ele>
        <time>2012-03-31T09:22:35Z</time>
      </trkpt>
      <trkpt lat="45.24265" lon="5.56309">
        <ele>1261</ele>
        <time>2012-03-31T09:22:42Z</time>
      </trkpt>
      <trkpt lat="45.24263" lon="5.5632">
        <ele>1262</ele>
        <time>2012-03-31T09:22:49Z</time>
      </trkpt>
      <trkpt lat="45.24259" lon="5.5633">
        <ele>1262</ele>
        <time>2012-03-31T09:22:56Z</time>
      </trkpt>
      <trkpt lat="45.24256" lon="5.56341">
        <ele>1267</ele>
        <time>2012-03-31T09:23:04Z</time>
      </trkpt>
      <trkpt lat="45.24249" lon="5.5635">
        <ele>1263</ele>
        <time>2012-03-31T09:23:11Z</time>
      </trkpt>
      <trkpt lat="45.24248" lon="5.56361">
        <ele>1260</ele>
        <time>2012-03-31T09:23:16Z</time>
      </trkpt>
      <trkpt lat="45.24242" lon="5.56366">
        <ele>1260</ele>
        <time>2012-03-31T09:23:23Z</time>
      </trkpt>
      <trkpt lat="45.24239" lon="5.56367">
        <ele>1259</ele>
        <time>2012-03-31T09:23:24Z</time>
      </trkpt>
      <trkpt lat="45.24228" lon="5.56375">
        <ele>1268</ele>
        <time>2012-03-31T09:23:45Z</time>
      </trkpt>
      <trkpt lat="45.24226" lon="5.56388">
        <ele>1272</ele>
        <time>2012-03-31T09:23:55Z</time>
      </trkpt>
      <trkpt lat="45.24222" lon="5.56398">
        <ele>1274</ele>
        <time>2012-03-31T09:24:03Z</time>
      </trkpt>
      <trkpt lat="45.24216" lon="5.56403">
        <ele>1275</ele>
        <time>2012-03-31T09:24:07Z</time>
      </trkpt>
      <trkpt lat="45.24211" lon="5.56413">
        <ele>1273</ele>
        <time>2012-03-31T09:24:18Z</time>
      </trkpt>
      <trkpt lat="45.24209" lon="5.56425">
        <ele>1267</ele>
        <time>2012-03-31T09:24:24Z</time>
      </trkpt>
      <trkpt lat="45.24209" lon="5.56426">
        <ele>1268</ele>
        <time>2012-03-31T09:24:25Z</time>
      </trkpt>
      <trkpt lat="45.24202" lon="5.56445">
        <ele>1269</ele>
        <time>2012-03-31T09:24:41Z</time>
      </trkpt>
      <trkpt lat="45.24207" lon="5.56456">
        <ele>1275</ele>
        <time>2012-03-31T09:24:55Z</time>
      </trkpt>
      <trkpt lat="45.24207" lon="5.56466">
        <ele>1277</ele>
        <time>2012-03-31T09:25:06Z</time>
      </trkpt>
      <trkpt lat="45.24212" lon="5.56476">
        <ele>1277</ele>
        <time>2012-03-31T09:25:11Z</time>
      </trkpt>
      <trkpt lat="45.24212" lon="5.56487">
        <ele>1279</ele>
        <time>2012-03-31T09:25:20Z</time>
      </trkpt>
      <trkpt lat="45.24216" lon="5.56495">
        <ele>1291</ele>
        <time>2012-03-31T09:25:38Z</time>
      </trkpt>
      <trkpt lat="45.24219" lon="5.56495">
        <ele>1290</ele>
        <time>2012-03-31T09:25:39Z</time>
      </trkpt>
      <trkpt lat="45.24232" lon="5.56504">
        <ele>1291</ele>
        <time>2012-03-31T09:25:57Z</time>
      </trkpt>
      <trkpt lat="45.2423" lon="5.56516">
        <ele>1288</ele>
        <time>2012-03-31T09:26:02Z</time>
      </trkpt>
      <trkpt lat="45.24227" lon="5.56527">
        <ele>1289</ele>
        <time>2012-03-31T09:26:08Z</time>
      </trkpt>
      <trkpt lat="45.2422" lon="5.56533">
        <ele>1292</ele>
        <time>2012-03-31T09:26:14Z</time>
      </trkpt>
      <trkpt lat="45.24217" lon="5.56545">
        <ele>1290</ele>
        <time>2012-03-31T09:26:23Z</time>
      </trkpt>
      <trkpt lat="45.24209" lon="5.56551">
        <ele>1287</ele>
        <time>2012-03-31T09:26:35Z</time>
      </trkpt>
      <trkpt lat="45.24204" lon="5.5656">
        <ele>1298</ele>
        <time>2012-03-31T09:27:15Z</time>
      </trkpt>
      <trkpt lat="45.242" lon="5.56559">
        <ele>1296</ele>
        <time>2012-03-31T09:27:16Z</time>
      </trkpt>
      <trkpt lat="45.24189" lon="5.5656">
        <ele>1290</ele>
        <time>2012-03-31T09:27:36Z</time>
      </trkpt>
      <trkpt lat="45.24185" lon="5.5657">
        <ele>1297</ele>
        <time>2012-03-31T09:27:54Z</time>
      </trkpt>
      <trkpt lat="45.24177" lon="5.56566">
        <ele>1304</ele>
        <time>2012-03-31T09:27:59Z</time>
      </trkpt>
      <trkpt lat="45.24169" lon="5.56561">
        <ele>1303</ele>
        <time>2012-03-31T09:28:03Z</time>
      </trkpt>
      <trkpt lat="45.24162" lon="5.56568">
        <ele>1301</ele>
        <time>2012-03-31T09:28:09Z</time>
      </trkpt>
      <trkpt lat="45.24157" lon="5.56578">
        <ele>1302</ele>
        <time>2012-03-31T09:28:15Z</time>
      </trkpt>
      <trkpt lat="45.24156" lon="5.56579">
        <ele>1301</ele>
        <time>2012-03-31T09:28:16Z</time>
      </trkpt>
      <trkpt lat="45.24153" lon="5.56599">
        <ele>1304</ele>
        <time>2012-03-31T09:28:34Z</time>
      </trkpt>
      <trkpt lat="45.24145" lon="5.56602">
        <ele>1304</ele>
        <time>2012-03-31T09:28:46Z</time>
      </trkpt>
      <trkpt lat="45.24137" lon="5.56599">
        <ele>1307</ele>
        <time>2012-03-31T09:28:55Z</time>
      </trkpt>
      <trkpt lat="45.24129" lon="5.56603">
        <ele>1306</ele>
        <time>2012-03-31T09:29:05Z</time>
      </trkpt>
      <trkpt lat="45.24124" lon="5.56611">
        <ele>1308</ele>
        <time>2012-03-31T09:29:21Z</time>
      </trkpt>
      <trkpt lat="45.24122" lon="5.56613">
        <ele>1308</ele>
        <time>2012-03-31T09:29:22Z</time>
      </trkpt>
      <trkpt lat="45.24109" lon="5.5662">
        <ele>1307</ele>
        <time>2012-03-31T09:29:31Z</time>
      </trkpt>
      <trkpt lat="45.24102" lon="5.56614">
        <ele>1303</ele>
        <time>2012-03-31T09:29:41Z</time>
      </trkpt>
      <trkpt lat="45.24104" lon="5.56604">
        <ele>1305</ele>
        <time>2012-03-31T09:29:58Z</time>
      </trkpt>
      <trkpt lat="45.24097" lon="5.56596">
        <ele>1305</ele>
        <time>2012-03-31T09:30:02Z</time>
      </trkpt>
      <trkpt lat="45.24091" lon="5.56588">
        <ele>1308</ele>
        <time>2012-03-31T09:30:15Z</time>
      </trkpt>
      <trkpt lat="45.24083" lon="5.56588">
        <ele>1305</ele>
        <time>2012-03-31T09:30:21Z</time>
      </trkpt>
      <trkpt lat="45.24081" lon="5.56587">
        <ele>1305</ele>
        <time>2012-03-31T09:30:22Z</time>
      </trkpt>
      <trkpt lat="45.24075" lon="5.56569">
        <ele>1324</ele>
        <time>2012-03-31T09:30:50Z</time>
      </trkpt>
      <trkpt lat="45.24072" lon="5.56557">
        <ele>1328</ele>
        <time>2012-03-31T09:31:00Z</time>
      </trkpt>
      <trkpt lat="45.24064" lon="5.56561">
        <ele>1333</ele>
        <time>2012-03-31T09:31:27Z</time>
      </trkpt>
      <trkpt lat="45.24063" lon="5.56562">
        <ele>1332</ele>
        <time>2012-03-31T09:31:28Z</time>
      </trkpt>
      <trkpt lat="45.24051" lon="5.56574">
        <ele>1336</ele>
        <time>2012-03-31T09:31:38Z</time>
      </trkpt>
      <trkpt lat="45.24053" lon="5.56585">
        <ele>1346</ele>
        <time>2012-03-31T09:31:51Z</time>
      </trkpt>
      <trkpt lat="45.24044" lon="5.56583">
        <ele>1357</ele>
        <time>2012-03-31T09:32:09Z</time>
      </trkpt>
      <trkpt lat="45.24035" lon="5.56583">
        <ele>1358</ele>
        <time>2012-03-31T09:32:16Z</time>
      </trkpt>
      <trkpt lat="45.24027" lon="5.56578">
        <ele>1366</ele>
        <time>2012-03-31T09:32:49Z</time>
      </trkpt>
      <trkpt lat="45.24026" lon="5.56579">
        <ele>1364</ele>
        <time>2012-03-31T09:32:50Z</time>
      </trkpt>
      <trkpt lat="45.24013" lon="5.56576">
        <ele>1372</ele>
        <time>2012-03-31T09:33:35Z</time>
      </trkpt>
      <trkpt lat="45.2401" lon="5.56588">
        <ele>1368</ele>
        <time>2012-03-31T09:33:54Z</time>
      </trkpt>
      <trkpt lat="45.2401" lon="5.5659">
        <ele>1365</ele>
        <time>2012-03-31T09:33:55Z</time>
      </trkpt>
      <trkpt lat="45.24007" lon="5.56607">
        <ele>1364</ele>
        <time>2012-03-31T09:34:07Z</time>
      </trkpt>
      <trkpt lat="45.24009" lon="5.56618">
        <ele>1366</ele>
        <time>2012-03-31T09:34:14Z</time>
      </trkpt>
      <trkpt lat="45.24015" lon="5.56625">
        <ele>1364</ele>
        <time>2012-03-31T09:34:19Z</time>
      </trkpt>
      <trkpt lat="45.24022" lon="5.56628">
        <ele>1366</ele>
        <time>2012-03-31T09:34:22Z</time>
      </trkpt>
      <trkpt lat="45.24016" lon="5.56632">
        <ele>1369</ele>
        <time>2012-03-31T09:34:36Z</time>
      </trkpt>
      <trkpt lat="45.24009" lon="5.56634">
        <ele>1367</ele>
        <time>2012-03-31T09:34:38Z</time>
      </trkpt>
      <trkpt lat="45.24001" lon="5.56636">
        <ele>1370</ele>
        <time>2012-03-31T09:34:42Z</time>
      </trkpt>
      <trkpt lat="45.23996" lon="5.56645">
        <ele>1369</ele>
        <time>2012-03-31T09:34:52Z</time>
      </trkpt>
      <trkpt lat="45.2399" lon="5.56654">
        <ele>1372</ele>
        <time>2012-03-31T09:35:03Z</time>
      </trkpt>
      <trkpt lat="45.2399" lon="5.56654">
        <ele>1374</ele>
        <time>2012-03-31T09:35:04Z</time>
      </trkpt>
      <trkpt lat="45.23985" lon="5.56665">
        <ele>1380</ele>
        <time>2012-03-31T09:35:49Z</time>
      </trkpt>
      <trkpt lat="45.2398" lon="5.56674">
        <ele>1399</ele>
        <time>2012-03-31T09:36:48Z</time>
      </trkpt>
      <trkpt lat="45.23979" lon="5.56675">
        <ele>1400</ele>
        <time>2012-03-31T09:36:49Z</time>
      </trkpt>
      <trkpt lat="45.23965" lon="5.56669">
        <ele>1398</ele>
        <time>2012-03-31T09:37:15Z</time>
      </trkpt>
      <trkpt lat="45.23957" lon="5.56668">
        <ele>1409</ele>
        <time>2012-03-31T09:38:09Z</time>
      </trkpt>
      <trkpt lat="45.23955" lon="5.56669">
        <ele>1410</ele>
        <time>2012-03-31T09:38:10Z</time>
      </trkpt>
      <trkpt lat="45.23947" lon="5.56665">
        <ele>1405</ele>
        <time>2012-03-31T09:38:39Z</time>
      </trkpt>
      <trkpt lat="45.23939" lon="5.56665">
        <ele>1402</ele>
        <time>2012-03-31T09:38:44Z</time>
      </trkpt>
      <trkpt lat="45.23933" lon="5.56675">
        <ele>1400</ele>
        <time>2012-03-31T09:38:54Z</time>
      </trkpt>
      <trkpt lat="45.23934" lon="5.56687">
        <ele>1413</ele>
        <time>2012-03-31T09:39:22Z</time>
      </trkpt>
      <trkpt lat="45.23936" lon="5.56689">
        <ele>1412</ele>
        <time>2012-03-31T09:39:23Z</time>
      </trkpt>
      <trkpt lat="45.23924" lon="5.56676">
        <ele>1411</ele>
        <time>2012-03-31T09:39:39Z</time>
      </trkpt>
      <trkpt lat="45.23919" lon="5.56671">
        <ele>1410</ele>
        <time>2012-03-31T09:39:41Z</time>
      </trkpt>
      <trkpt lat="45.23917" lon="5.56683">
        <ele>1413</ele>
        <time>2012-03-31T09:39:56Z</time>
      </trkpt>
      <trkpt lat="45.23911" lon="5.56691">
        <ele>1414</ele>
        <time>2012-03-31T09:40:18Z</time>
      </trkpt>
      <trkpt lat="45.23907" lon="5.56702">
        <ele>1420</ele>
        <time>2012-03-31T09:40:37Z</time>
      </trkpt>
      <trkpt lat="45.23907" lon="5.56702">
        <ele>1421</ele>
        <time>2012-03-31T09:40:38Z</time>
      </trkpt>
      <trkpt lat="45.23914" lon="5.56724">
        <ele>1426</ele>
        <time>2012-03-31T09:41:26Z</time>
      </trkpt>
      <trkpt lat="45.23921" lon="5.5673">
        <ele>1432</ele>
        <time>2012-03-31T09:41:48Z</time>
      </trkpt>
      <trkpt lat="45.23922" lon="5.5673">
        <ele>1433</ele>
        <time>2012-03-31T09:41:49Z</time>
      </trkpt>
      <trkpt lat="45.23905" lon="5.56722">
        <ele>1436</ele>
        <time>2012-03-31T09:42:18Z</time>
      </trkpt>
      <trkpt lat="45.23905" lon="5.56711">
        <ele>1446</ele>
        <time>2012-03-31T09:42:35Z</time>
      </trkpt>
      <trkpt lat="45.239" lon="5.56701">
        <ele>1449</ele>
        <time>2012-03-31T09:42:41Z</time>
      </trkpt>
      <trkpt lat="45.23893" lon="5.56692">
        <ele>1444</ele>
        <time>2012-03-31T09:43:36Z</time>
      </trkpt>
      <trkpt lat="45.23893" lon="5.56692">
        <ele>1444</ele>
        <time>2012-03-31T09:43:38Z</time>
      </trkpt>
      <trkpt lat="45.23904" lon="5.56684">
        <ele>1450</ele>
        <time>2012-03-31T09:44:42Z</time>
      </trkpt>
      <trkpt lat="45.23905" lon="5.56683">
        <ele>1452</ele>
        <time>2012-03-31T09:44:43Z</time>
      </trkpt>
      <trkpt lat="45.239" lon="5.5667">
        <ele>1442</ele>
        <time>2012-03-31T09:45:02Z</time>
      </trkpt>
      <trkpt lat="45.23905" lon="5.5668">
        <ele>1438</ele>
        <time>2012-03-31T09:45:19Z</time>
      </trkpt>
      <trkpt lat="45.23902" lon="5.56668">
        <ele>1440</ele>
        <time>2012-03-31T09:45:35Z</time>
      </trkpt>
      <trkpt lat="45.23897" lon="5.56676">
        <ele>1436</ele>
        <time>2012-03-31T09:45:49Z</time>
      </trkpt>
      <trkpt lat="45.23895" lon="5.56679">
        <ele>1435</ele>
        <time>2012-03-31T09:45:50Z</time>
      </trkpt>
      <trkpt lat="45.23898" lon="5.56679">
        <ele>1435</ele>
        <time>2012-03-31T09:46:00Z</time>
      </trkpt>
      <trkpt lat="45.23902" lon="5.5667">
        <ele>1433</ele>
        <time>2012-03-31T09:46:05Z</time>
      </trkpt>
      <trkpt lat="45.23895" lon="5.56665">
        <ele>1450</ele>
        <time>2012-03-31T09:46:27Z</time>
      </trkpt>
      <trkpt lat="45.23902" lon="5.56662">
        <ele>1447</ele>
        <time>2012-03-31T09:46:51Z</time>
      </trkpt>
      <trkpt lat="45.23904" lon="5.56664">
        <ele>1446</ele>
        <time>2012-03-31T09:46:52Z</time>
      </trkpt>
      <trkpt lat="45.23907" lon="5.56656">
        <ele>1441</ele>
        <time>2012-03-31T09:47:09Z</time>
      </trkpt>
      <trkpt lat="45.23901" lon="5.56648">
        <ele>1439</ele>
        <time>2012-03-31T09:47:14Z</time>
      </trkpt>
      <trkpt lat="45.23894" lon="5.56649">
        <ele>1445</ele>
        <time>2012-03-31T09:47:35Z</time>
      </trkpt>
      <trkpt lat="45.23898" lon="5.56658">
        <ele>1449</ele>
        <time>2012-03-31T09:48:11Z</time>
      </trkpt>
      <trkpt lat="45.23902" lon="5.56657">
        <ele>1446</ele>
        <time>2012-03-31T09:48:12Z</time>
      </trkpt>
      <trkpt lat="45.23914" lon="5.56654">
        <ele>1434</ele>
        <time>2012-03-31T09:48:46Z</time>
      </trkpt>
      <trkpt lat="45.23915" lon="5.56643">
        <ele>1443</ele>
        <time>2012-03-31T09:50:02Z</time>
      </trkpt>
      <trkpt lat="45.23917" lon="5.56642">
        <ele>1443</ele>
        <time>2012-03-31T09:50:03Z</time>
      </trkpt>
      <trkpt lat="45.23914" lon="5.56647">
        <ele>1437</ele>
        <time>2012-03-31T09:50:24Z</time>
      </trkpt>
      <trkpt lat="45.23906" lon="5.56642">
        <ele>1451</ele>
        <time>2012-03-31T09:51:08Z</time>
      </trkpt>
      <trkpt lat="45.23906" lon="5.56641">
        <ele>1451</ele>
        <time>2012-03-31T09:51:09Z</time>
      </trkpt>
      <trkpt lat="45.2389" lon="5.56636">
        <ele>1443</ele>
        <time>2012-03-31T09:51:29Z</time>
      </trkpt>
      <trkpt lat="45.23898" lon="5.56639">
        <ele>1447</ele>
        <time>2012-03-31T09:51:39Z</time>
      </trkpt>
      <trkpt lat="45.23892" lon="5.56632">
        <ele>1440</ele>
        <time>2012-03-31T09:51:47Z</time>
      </trkpt>
      <trkpt lat="45.23897" lon="5.56641">
        <ele>1443</ele>
        <time>2012-03-31T09:52:38Z</time>
      </trkpt>
      <trkpt lat="45.23898" lon="5.56642">
        <ele>1442</ele>
        <time>2012-03-31T09:52:39Z</time>
      </trkpt>
      <trkpt lat="45.23897" lon="5.5662">
        <ele>1448</ele>
        <time>2012-03-31T09:53:17Z</time>
      </trkpt>
      <trkpt lat="45.2389" lon="5.56626">
        <ele>1442</ele>
        <time>2012-03-31T09:54:16Z</time>
      </trkpt>
      <trkpt lat="45.2389" lon="5.56627">
        <ele>1442</ele>
        <time>2012-03-31T09:54:17Z</time>
      </trkpt>
      <trkpt lat="45.23878" lon="5.56624">
        <ele>1436</ele>
        <time>2012-03-31T09:56:18Z</time>
      </trkpt>
      <trkpt lat="45.23877" lon="5.56624">
        <ele>1437</ele>
        <time>2012-03-31T09:56:19Z</time>
      </trkpt>
      <trkpt lat="45.2388" lon="5.56641">
        <ele>1435</ele>
        <time>2012-03-31T09:56:58Z</time>
      </trkpt>
      <trkpt lat="45.23886" lon="5.56644">
        <ele>1435</ele>
        <time>2012-03-31T09:57:01Z</time>
      </trkpt>
      <trkpt lat="45.23889" lon="5.56655">
        <ele>1438</ele>
        <time>2012-03-31T09:57:52Z</time>
      </trkpt>
      <trkpt lat="45.23889" lon="5.56658">
        <ele>1439</ele>
        <time>2012-03-31T09:57:53Z</time>
      </trkpt>
      <trkpt lat="45.23877" lon="5.56655">
        <ele>1432</ele>
        <time>2012-03-31T09:58:07Z</time>
      </trkpt>
      <trkpt lat="45.23882" lon="5.56661">
        <ele>1429</ele>
        <time>2012-03-31T09:58:13Z</time>
      </trkpt>
      <trkpt lat="45.23889" lon="5.56663">
        <ele>1429</ele>
        <time>2012-03-31T09:58:16Z</time>
      </trkpt>
      <trkpt lat="45.23896" lon="5.56669">
        <ele>1432</ele>
        <time>2012-03-31T09:58:25Z</time>
      </trkpt>
      <trkpt lat="45.23889" lon="5.56665">
        <ele>1438</ele>
        <time>2012-03-31T09:59:23Z</time>
      </trkpt>
      <trkpt lat="45.23888" lon="5.56664">
        <ele>1438</ele>
        <time>2012-03-31T09:59:24Z</time>
      </trkpt>
      <trkpt lat="45.23898" lon="5.56676">
        <ele>1436</ele>
        <time>2012-03-31T10:00:34Z</time>
      </trkpt>
      <trkpt lat="45.23899" lon="5.56677">
        <ele>1436</ele>
        <time>2012-03-31T10:00:34Z</time>
      </trkpt>
      <trkpt lat="45.23898" lon="5.56688">
        <ele>1428</ele>
        <time>2012-03-31T10:01:29Z</time>
      </trkpt>
      <trkpt lat="45.23901" lon="5.567">
        <ele>1427</ele>
        <time>2012-03-31T10:01:35Z</time>
      </trkpt>
      <trkpt lat="45.23901" lon="5.567">
        <ele>1427</ele>
        <time>2012-03-31T10:01:36Z</time>
      </trkpt>
      <trkpt lat="45.23901" lon="5.56721">
        <ele>1438</ele>
        <time>2012-03-31T10:03:10Z</time>
      </trkpt>
      <trkpt lat="45.239" lon="5.56723">
        <ele>1436</ele>
        <time>2012-03-31T10:03:10Z</time>
      </trkpt>
      <trkpt lat="45.23911" lon="5.56738">
        <ele>1426</ele>
        <time>2012-03-31T10:03:29Z</time>
      </trkpt>
      <trkpt lat="45.23912" lon="5.56751">
        <ele>1424</ele>
        <time>2012-03-31T10:03:49Z</time>
      </trkpt>
      <trkpt lat="45.23916" lon="5.5676">
        <ele>1422</ele>
        <time>2012-03-31T10:04:37Z</time>
      </trkpt>
      <trkpt lat="45.23918" lon="5.56761">
        <ele>1422</ele>
        <time>2012-03-31T10:04:38Z</time>
      </trkpt>
      <trkpt lat="45.23927" lon="5.56769">
        <ele>1420</ele>
        <time>2012-03-31T10:04:54Z</time>
      </trkpt>
      <trkpt lat="45.23935" lon="5.56773">
        <ele>1421</ele>
        <time>2012-03-31T10:04:59Z</time>
      </trkpt>
      <trkpt lat="45.23939" lon="5.56784">
        <ele>1418</ele>
        <time>2012-03-31T10:05:32Z</time>
      </trkpt>
      <trkpt lat="45.23947" lon="5.56785">
        <ele>1415</ele>
        <time>2012-03-31T10:05:36Z</time>
      </trkpt>
      <trkpt lat="45.23954" lon="5.56779">
        <ele>1412</ele>
        <time>2012-03-31T10:05:42Z</time>
      </trkpt>
      <trkpt lat="45.23955" lon="5.56777">
        <ele>1412</ele>
        <time>2012-03-31T10:05:43Z</time>
      </trkpt>
      <trkpt lat="45.23961" lon="5.56758">
        <ele>1409</ele>
        <time>2012-03-31T10:06:06Z</time>
      </trkpt>
      <trkpt lat="45.23963" lon="5.56746">
        <ele>1407</ele>
        <time>2012-03-31T10:06:14Z</time>
      </trkpt>
      <trkpt lat="45.23964" lon="5.56734">
        <ele>1404</ele>
        <time>2012-03-31T10:06:21Z</time>
      </trkpt>
      <trkpt lat="45.23965" lon="5.56721">
        <ele>1405</ele>
        <time>2012-03-31T10:06:27Z</time>
      </trkpt>
      <trkpt lat="45.23974" lon="5.56718">
        <ele>1405</ele>
        <time>2012-03-31T10:06:35Z</time>
      </trkpt>
      <trkpt lat="45.23978" lon="5.56728">
        <ele>1398</ele>
        <time>2012-03-31T10:06:47Z</time>
      </trkpt>
      <trkpt lat="45.23977" lon="5.56731">
        <ele>1398</ele>
        <time>2012-03-31T10:06:49Z</time>
      </trkpt>
      <trkpt lat="45.23981" lon="5.56752">
        <ele>1397</ele>
        <time>2012-03-31T10:07:00Z</time>
      </trkpt>
      <trkpt lat="45.23983" lon="5.56763">
        <ele>1396</ele>
        <time>2012-03-31T10:07:07Z</time>
      </trkpt>
      <trkpt lat="45.23987" lon="5.56774">
        <ele>1391</ele>
        <time>2012-03-31T10:07:13Z</time>
      </trkpt>
      <trkpt lat="45.23993" lon="5.56783">
        <ele>1381</ele>
        <time>2012-03-31T10:08:27Z</time>
      </trkpt>
      <trkpt lat="45.23993" lon="5.56784">
        <ele>1381</ele>
        <time>2012-03-31T10:08:28Z</time>
      </trkpt>
      <trkpt lat="45.24008" lon="5.56796">
        <ele>1383</ele>
        <time>2012-03-31T10:09:38Z</time>
      </trkpt>
      <trkpt lat="45.24009" lon="5.56796">
        <ele>1381</ele>
        <time>2012-03-31T10:09:39Z</time>
      </trkpt>
      <trkpt lat="45.24024" lon="5.56797">
        <ele>1376</ele>
        <time>2012-03-31T10:10:03Z</time>
      </trkpt>
      <trkpt lat="45.2403" lon="5.56805">
        <ele>1373</ele>
        <time>2012-03-31T10:10:08Z</time>
      </trkpt>
      <trkpt lat="45.24025" lon="5.56816">
        <ele>1374</ele>
        <time>2012-03-31T10:10:21Z</time>
      </trkpt>
      <trkpt lat="45.24032" lon="5.56824">
        <ele>1372</ele>
        <time>2012-03-31T10:10:33Z</time>
      </trkpt>
      <trkpt lat="45.24039" lon="5.56828">
        <ele>1372</ele>
        <time>2012-03-31T10:10:36Z</time>
      </trkpt>
      <trkpt lat="45.24031" lon="5.56835">
        <ele>1364</ele>
        <time>2012-03-31T10:10:44Z</time>
      </trkpt>
      <trkpt lat="45.2403" lon="5.56834">
        <ele>1364</ele>
        <time>2012-03-31T10:10:45Z</time>
      </trkpt>
      <trkpt lat="45.24046" lon="5.56847">
        <ele>1371</ele>
        <time>2012-03-31T10:11:15Z</time>
      </trkpt>
      <trkpt lat="45.24053" lon="5.5685">
        <ele>1372</ele>
        <time>2012-03-31T10:11:22Z</time>
      </trkpt>
      <trkpt lat="45.24058" lon="5.56857">
        <ele>1368</ele>
        <time>2012-03-31T10:11:36Z</time>
      </trkpt>
      <trkpt lat="45.24065" lon="5.56866">
        <ele>1372</ele>
        <time>2012-03-31T10:11:42Z</time>
      </trkpt>
      <trkpt lat="45.24065" lon="5.56854">
        <ele>1363</ele>
        <time>2012-03-31T10:12:04Z</time>
      </trkpt>
      <trkpt lat="45.24066" lon="5.56852">
        <ele>1363</ele>
        <time>2012-03-31T10:12:05Z</time>
      </trkpt>
      <trkpt lat="45.24067" lon="5.56833">
        <ele>1354</ele>
        <time>2012-03-31T10:12:24Z</time>
      </trkpt>
      <trkpt lat="45.24074" lon="5.5683">
        <ele>1353</ele>
        <time>2012-03-31T10:12:26Z</time>
      </trkpt>
      <trkpt lat="45.24082" lon="5.56827">
        <ele>1358</ele>
        <time>2012-03-31T10:12:31Z</time>
      </trkpt>
      <trkpt lat="45.24089" lon="5.56819">
        <ele>1353</ele>
        <time>2012-03-31T10:12:44Z</time>
      </trkpt>
      <trkpt lat="45.24097" lon="5.56817">
        <ele>1355</ele>
        <time>2012-03-31T10:12:58Z</time>
      </trkpt>
      <trkpt lat="45.24105" lon="5.56814">
        <ele>1355</ele>
        <time>2012-03-31T10:13:08Z</time>
      </trkpt>
      <trkpt lat="45.24106" lon="5.56814">
        <ele>1355</ele>
        <time>2012-03-31T10:13:09Z</time>
      </trkpt>
      <trkpt lat="45.24104" lon="5.56791">
        <ele>1344</ele>
        <time>2012-03-31T10:14:02Z</time>
      </trkpt>
      <trkpt lat="45.24105" lon="5.56779">
        <ele>1346</ele>
        <time>2012-03-31T10:14:05Z</time>
      </trkpt>
      <trkpt lat="45.2411" lon="5.56771">
        <ele>1346</ele>
        <time>2012-03-31T10:14:12Z</time>
      </trkpt>
      <trkpt lat="45.24111" lon="5.5677">
        <ele>1346</ele>
        <time>2012-03-31T10:14:14Z</time>
      </trkpt>
      <trkpt lat="45.24121" lon="5.56753">
        <ele>1339</ele>
        <time>2012-03-31T10:14:39Z</time>
      </trkpt>
      <trkpt lat="45.24123" lon="5.56741">
        <ele>1335</ele>
        <time>2012-03-31T10:14:49Z</time>
      </trkpt>
      <trkpt lat="45.24131" lon="5.56734">
        <ele>1335</ele>
        <time>2012-03-31T10:14:56Z</time>
      </trkpt>
      <trkpt lat="45.24138" lon="5.56738">
        <ele>1326</ele>
        <time>2012-03-31T10:15:10Z</time>
      </trkpt>
      <trkpt lat="45.24143" lon="5.56749">
        <ele>1327</ele>
        <time>2012-03-31T10:15:21Z</time>
      </trkpt>
      <trkpt lat="45.24143" lon="5.56751">
        <ele>1326</ele>
        <time>2012-03-31T10:15:22Z</time>
      </trkpt>
      <trkpt lat="45.24148" lon="5.5677">
        <ele>1328</ele>
        <time>2012-03-31T10:15:34Z</time>
      </trkpt>
      <trkpt lat="45.24154" lon="5.56778">
        <ele>1326</ele>
        <time>2012-03-31T10:15:52Z</time>
      </trkpt>
      <trkpt lat="45.24162" lon="5.56782">
        <ele>1324</ele>
        <time>2012-03-31T10:15:57Z</time>
      </trkpt>
      <trkpt lat="45.24169" lon="5.56783">
        <ele>1321</ele>
        <time>2012-03-31T10:16:01Z</time>
      </trkpt>
      <trkpt lat="45.24178" lon="5.56787">
        <ele>1321</ele>
        <time>2012-03-31T10:16:07Z</time>
      </trkpt>
      <trkpt lat="45.24186" lon="5.56785">
        <ele>1318</ele>
        <time>2012-03-31T10:16:19Z</time>
      </trkpt>
      <trkpt lat="45.24191" lon="5.56783">
        <ele>1319</ele>
        <time>2012-03-31T10:16:22Z</time>
      </trkpt>
      <trkpt lat="45.24194" lon="5.56781">
        <ele>1318</ele>
        <time>2012-03-31T10:16:23Z</time>
      </trkpt>
      <trkpt lat="45.24205" lon="5.56787">
        <ele>1319</ele>
        <time>2012-03-31T10:16:44Z</time>
      </trkpt>
      <trkpt lat="45.24213" lon="5.56792">
        <ele>1324</ele>
        <time>2012-03-31T10:16:49Z</time>
      </trkpt>
      <trkpt lat="45.24221" lon="5.56787">
        <ele>1327</ele>
        <time>2012-03-31T10:16:58Z</time>
      </trkpt>
      <trkpt lat="45.24229" lon="5.56786">
        <ele>1323</ele>
        <time>2012-03-31T10:17:04Z</time>
      </trkpt>
      <trkpt lat="45.24237" lon="5.56783">
        <ele>1327</ele>
        <time>2012-03-31T10:17:10Z</time>
      </trkpt>
      <trkpt lat="45.24246" lon="5.56784">
        <ele>1327</ele>
        <time>2012-03-31T10:17:15Z</time>
      </trkpt>
      <trkpt lat="45.24251" lon="5.56794">
        <ele>1328</ele>
        <time>2012-03-31T10:17:30Z</time>
      </trkpt>
      <trkpt lat="45.24251" lon="5.56796">
        <ele>1328</ele>
        <time>2012-03-31T10:17:31Z</time>
      </trkpt>
      <trkpt lat="45.24236" lon="5.56793">
        <ele>1329</ele>
        <time>2012-03-31T10:18:28Z</time>
      </trkpt>
      <trkpt lat="45.24231" lon="5.56785">
        <ele>1325</ele>
        <time>2012-03-31T10:18:39Z</time>
      </trkpt>
      <trkpt lat="45.24229" lon="5.56784">
        <ele>1323</ele>
        <time>2012-03-31T10:18:40Z</time>
      </trkpt>
      <trkpt lat="45.24215" lon="5.56787">
        <ele>1316</ele>
        <time>2012-03-31T10:18:48Z</time>
      </trkpt>
      <trkpt lat="45.24207" lon="5.56791">
        <ele>1313</ele>
        <time>2012-03-31T10:18:52Z</time>
      </trkpt>
      <trkpt lat="45.24201" lon="5.56797">
        <ele>1310</ele>
        <time>2012-03-31T10:18:56Z</time>
      </trkpt>
      <trkpt lat="45.24197" lon="5.56804">
        <ele>1304</ele>
        <time>2012-03-31T10:19:06Z</time>
      </trkpt>
      <trkpt lat="45.24194" lon="5.56815">
        <ele>1308</ele>
        <time>2012-03-31T10:19:13Z</time>
      </trkpt>
      <trkpt lat="45.242" lon="5.56822">
        <ele>1304</ele>
        <time>2012-03-31T10:19:21Z</time>
      </trkpt>
      <trkpt lat="45.24202" lon="5.56834">
        <ele>1297</ele>
        <time>2012-03-31T10:19:35Z</time>
      </trkpt>
      <trkpt lat="45.24201" lon="5.56846">
        <ele>1299</ele>
        <time>2012-03-31T10:19:48Z</time>
      </trkpt>
      <trkpt lat="45.242" lon="5.56848">
        <ele>1299</ele>
        <time>2012-03-31T10:19:49Z</time>
      </trkpt>
      <trkpt lat="45.242" lon="5.56869">
        <ele>1290</ele>
        <time>2012-03-31T10:20:18Z</time>
      </trkpt>
      <trkpt lat="45.24198" lon="5.56881">
        <ele>1289</ele>
        <time>2012-03-31T10:20:34Z</time>
      </trkpt>
      <trkpt lat="45.24193" lon="5.56892">
        <ele>1282</ele>
        <time>2012-03-31T10:20:47Z</time>
      </trkpt>
      <trkpt lat="45.24193" lon="5.56904">
        <ele>1272</ele>
        <time>2012-03-31T10:21:01Z</time>
      </trkpt>
      <trkpt lat="45.24195" lon="5.56905">
        <ele>1271</ele>
        <time>2012-03-31T10:21:02Z</time>
      </trkpt>
      <trkpt lat="45.24207" lon="5.56915">
        <ele>1273</ele>
        <time>2012-03-31T10:21:09Z</time>
      </trkpt>
      <trkpt lat="45.2421" lon="5.56925">
        <ele>1274</ele>
        <time>2012-03-31T10:21:12Z</time>
      </trkpt>
      <trkpt lat="45.24215" lon="5.56933">
        <ele>1273</ele>
        <time>2012-03-31T10:21:17Z</time>
      </trkpt>
      <trkpt lat="45.24218" lon="5.56945">
        <ele>1270</ele>
        <time>2012-03-31T10:21:35Z</time>
      </trkpt>
      <trkpt lat="45.24223" lon="5.56934">
        <ele>1273</ele>
        <time>2012-03-31T10:21:58Z</time>
      </trkpt>
      <trkpt lat="45.2423" lon="5.56931">
        <ele>1272</ele>
        <time>2012-03-31T10:22:04Z</time>
      </trkpt>
      <trkpt lat="45.24232" lon="5.5693">
        <ele>1272</ele>
        <time>2012-03-31T10:22:05Z</time>
      </trkpt>
      <trkpt lat="45.24246" lon="5.56924">
        <ele>1275</ele>
        <time>2012-03-31T10:22:18Z</time>
      </trkpt>
      <trkpt lat="45.24254" lon="5.56922">
        <ele>1270</ele>
        <time>2012-03-31T10:22:33Z</time>
      </trkpt>
      <trkpt lat="45.24262" lon="5.56923">
        <ele>1270</ele>
        <time>2012-03-31T10:22:39Z</time>
      </trkpt>
      <trkpt lat="45.2427" lon="5.56925">
        <ele>1269</ele>
        <time>2012-03-31T10:22:42Z</time>
      </trkpt>
      <trkpt lat="45.24278" lon="5.56927">
        <ele>1270</ele>
        <time>2012-03-31T10:22:45Z</time>
      </trkpt>
      <trkpt lat="45.24284" lon="5.56928">
        <ele>1269</ele>
        <time>2012-03-31T10:22:47Z</time>
      </trkpt>
      <trkpt lat="45.24291" lon="5.56926">
        <ele>1267</ele>
        <time>2012-03-31T10:22:49Z</time>
      </trkpt>
      <trkpt lat="45.24299" lon="5.56927">
        <ele>1267</ele>
        <time>2012-03-31T10:22:53Z</time>
      </trkpt>
      <trkpt lat="45.24306" lon="5.56927">
        <ele>1268</ele>
        <time>2012-03-31T10:22:54Z</time>
      </trkpt>
      <trkpt lat="45.24312" lon="5.56927">
        <ele>1269</ele>
        <time>2012-03-31T10:22:56Z</time>
      </trkpt>
      <trkpt lat="45.24316" lon="5.56927">
        <ele>1269</ele>
        <time>2012-03-31T10:22:58Z</time>
      </trkpt>
      <trkpt lat="45.24323" lon="5.56926">
        <ele>1268</ele>
        <time>2012-03-31T10:22:58Z</time>
      </trkpt>
      <trkpt lat="45.24332" lon="5.56926">
        <ele>1265</ele>
        <time>2012-03-31T10:23:00Z</time>
      </trkpt>
      <trkpt lat="45.2434" lon="5.56928">
        <ele>1267</ele>
        <time>2012-03-31T10:23:04Z</time>
      </trkpt>
      <trkpt lat="45.24347" lon="5.56921">
        <ele>1261</ele>
        <time>2012-03-31T10:23:14Z</time>
      </trkpt>
      <trkpt lat="45.24348" lon="5.56921">
        <ele>1262</ele>
        <time>2012-03-31T10:23:15Z</time>
      </trkpt>
      <trkpt lat="45.24359" lon="5.56906">
        <ele>1257</ele>
        <time>2012-03-31T10:23:35Z</time>
      </trkpt>
      <trkpt lat="45.24364" lon="5.56899">
        <ele>1259</ele>
        <time>2012-03-31T10:23:39Z</time>
      </trkpt>
      <trkpt lat="45.2437" lon="5.56892">
        <ele>1259</ele>
        <time>2012-03-31T10:23:43Z</time>
      </trkpt>
      <trkpt lat="45.24373" lon="5.5688">
        <ele>1256</ele>
        <time>2012-03-31T10:23:50Z</time>
      </trkpt>
      <trkpt lat="45.24378" lon="5.56869">
        <ele>1257</ele>
        <time>2012-03-31T10:24:03Z</time>
      </trkpt>
      <trkpt lat="45.24384" lon="5.56862">
        <ele>1257</ele>
        <time>2012-03-31T10:24:07Z</time>
      </trkpt>
      <trkpt lat="45.24387" lon="5.56851">
        <ele>1256</ele>
        <time>2012-03-31T10:24:14Z</time>
      </trkpt>
      <trkpt lat="45.24387" lon="5.56839">
        <ele>1255</ele>
        <time>2012-03-31T10:24:18Z</time>
      </trkpt>
      <trkpt lat="45.24387" lon="5.56836">
        <ele>1256</ele>
        <time>2012-03-31T10:24:19Z</time>
      </trkpt>
      <trkpt lat="45.24394" lon="5.56825">
        <ele>1266</ele>
        <time>2012-03-31T10:24:26Z</time>
      </trkpt>
      <trkpt lat="45.24401" lon="5.56829">
        <ele>1268</ele>
        <time>2012-03-31T10:24:32Z</time>
      </trkpt>
      <trkpt lat="45.24399" lon="5.56817">
        <ele>1270</ele>
        <time>2012-03-31T10:24:52Z</time>
      </trkpt>
      <trkpt lat="45.24401" lon="5.56805">
        <ele>1267</ele>
        <time>2012-03-31T10:25:00Z</time>
      </trkpt>
      <trkpt lat="45.24406" lon="5.56795">
        <ele>1263</ele>
        <time>2012-03-31T10:25:09Z</time>
      </trkpt>
      <trkpt lat="45.24412" lon="5.56789">
        <ele>1264</ele>
        <time>2012-03-31T10:25:14Z</time>
      </trkpt>
      <trkpt lat="45.24418" lon="5.56781">
        <ele>1256</ele>
        <time>2012-03-31T10:25:31Z</time>
      </trkpt>
      <trkpt lat="45.24419" lon="5.56781">
        <ele>1255</ele>
        <time>2012-03-31T10:25:31Z</time>
      </trkpt>
      <trkpt lat="45.2442" lon="5.56765">
        <ele>1254</ele>
        <time>2012-03-31T10:26:14Z</time>
      </trkpt>
      <trkpt lat="45.24426" lon="5.56758">
        <ele>1254</ele>
        <time>2012-03-31T10:26:17Z</time>
      </trkpt>
      <trkpt lat="45.24431" lon="5.5675">
        <ele>1253</ele>
        <time>2012-03-31T10:26:20Z</time>
      </trkpt>
      <trkpt lat="45.24432" lon="5.56739">
        <ele>1255</ele>
        <time>2012-03-31T10:26:23Z</time>
      </trkpt>
      <trkpt lat="45.24432" lon="5.56735">
        <ele>1254</ele>
        <time>2012-03-31T10:26:24Z</time>
      </trkpt>
      <trkpt lat="45.2444" lon="5.56731">
        <ele>1263</ele>
        <time>2012-03-31T10:26:25Z</time>
      </trkpt>
      <trkpt lat="45.24445" lon="5.56723">
        <ele>1261</ele>
        <time>2012-03-31T10:26:28Z</time>
      </trkpt>
      <trkpt lat="45.24448" lon="5.5671">
        <ele>1258</ele>
        <time>2012-03-31T10:26:35Z</time>
      </trkpt>
      <trkpt lat="45.24448" lon="5.56708">
        <ele>1257</ele>
        <time>2012-03-31T10:26:35Z</time>
      </trkpt>
      <trkpt lat="45.24443" lon="5.56689">
        <ele>1254</ele>
        <time>2012-03-31T10:26:44Z</time>
      </trkpt>
      <trkpt lat="45.24437" lon="5.5668">
        <ele>1252</ele>
        <time>2012-03-31T10:26:49Z</time>
      </trkpt>
      <trkpt lat="45.24433" lon="5.5667">
        <ele>1253</ele>
        <time>2012-03-31T10:26:55Z</time>
      </trkpt>
      <trkpt lat="45.24438" lon="5.5666">
        <ele>1249</ele>
        <time>2012-03-31T10:26:59Z</time>
      </trkpt>
      <trkpt lat="45.2444" lon="5.56648">
        <ele>1244</ele>
        <time>2012-03-31T10:27:03Z</time>
      </trkpt>
      <trkpt lat="45.24442" lon="5.56638">
        <ele>1242</ele>
        <time>2012-03-31T10:27:06Z</time>
      </trkpt>
      <trkpt lat="45.24447" lon="5.56629">
        <ele>1243</ele>
        <time>2012-03-31T10:27:09Z</time>
      </trkpt>
      <trkpt lat="45.24448" lon="5.56617">
        <ele>1243</ele>
        <time>2012-03-31T10:27:14Z</time>
      </trkpt>
      <trkpt lat="45.24447" lon="5.56605">
        <ele>1241</ele>
        <time>2012-03-31T10:27:21Z</time>
      </trkpt>
      <trkpt lat="45.24448" lon="5.56594">
        <ele>1244</ele>
        <time>2012-03-31T10:27:27Z</time>
      </trkpt>
      <trkpt lat="45.24452" lon="5.56583">
        <ele>1245</ele>
        <time>2012-03-31T10:27:30Z</time>
      </trkpt>
      <trkpt lat="45.24458" lon="5.56574">
        <ele>1246</ele>
        <time>2012-03-31T10:27:36Z</time>
      </trkpt>
      <trkpt lat="45.24459" lon="5.56572">
        <ele>1245</ele>
        <time>2012-03-31T10:27:37Z</time>
      </trkpt>
      <trkpt lat="45.24467" lon="5.56558">
        <ele>1244</ele>
        <time>2012-03-31T10:27:42Z</time>
      </trkpt>
      <trkpt lat="45.2447" lon="5.56546">
        <ele>1242</ele>
        <time>2012-03-31T10:27:46Z</time>
      </trkpt>
      <trkpt lat="45.24469" lon="5.56535">
        <ele>1239</ele>
        <time>2012-03-31T10:27:49Z</time>
      </trkpt>
      <trkpt lat="45.24472" lon="5.56524">
        <ele>1236</ele>
        <time>2012-03-31T10:27:53Z</time>
      </trkpt>
      <trkpt lat="45.24477" lon="5.56516">
        <ele>1237</ele>
        <time>2012-03-31T10:27:57Z</time>
      </trkpt>
      <trkpt lat="45.24483" lon="5.56512">
        <ele>1239</ele>
        <time>2012-03-31T10:27:59Z</time>
      </trkpt>
      <trkpt lat="45.24491" lon="5.5651">
        <ele>1236</ele>
        <time>2012-03-31T10:28:03Z</time>
      </trkpt>
      <trkpt lat="45.24488" lon="5.56501">
        <ele>1233</ele>
        <time>2012-03-31T10:28:35Z</time>
      </trkpt>
      <trkpt lat="45.24487" lon="5.5649">
        <ele>1231</ele>
        <time>2012-03-31T10:28:37Z</time>
      </trkpt>
      <trkpt lat="45.24486" lon="5.56484">
        <ele>1230</ele>
        <time>2012-03-31T10:28:38Z</time>
      </trkpt>
      <trkpt lat="45.24484" lon="5.56475">
        <ele>1229</ele>
        <time>2012-03-31T10:28:40Z</time>
      </trkpt>
      <trkpt lat="45.2448" lon="5.56467">
        <ele>1228</ele>
        <time>2012-03-31T10:28:43Z</time>
      </trkpt>
      <trkpt lat="45.24475" lon="5.56463">
        <ele>1227</ele>
        <time>2012-03-31T10:28:43Z</time>
      </trkpt>
      <trkpt lat="45.24467" lon="5.56461">
        <ele>1227</ele>
        <time>2012-03-31T10:28:45Z</time>
      </trkpt>
      <trkpt lat="45.24459" lon="5.56461">
        <ele>1226</ele>
        <time>2012-03-31T10:28:48Z</time>
      </trkpt>
      <trkpt lat="45.24454" lon="5.56462">
        <ele>1225</ele>
        <time>2012-03-31T10:28:50Z</time>
      </trkpt>
      <trkpt lat="45.24448" lon="5.56464">
        <ele>1225</ele>
        <time>2012-03-31T10:28:52Z</time>
      </trkpt>
      <trkpt lat="45.24441" lon="5.56466">
        <ele>1224</ele>
        <time>2012-03-31T10:28:55Z</time>
      </trkpt>
      <trkpt lat="45.24432" lon="5.56467">
        <ele>1222</ele>
        <time>2012-03-31T10:28:57Z</time>
      </trkpt>
      <trkpt lat="45.24424" lon="5.56469">
        <ele>1221</ele>
        <time>2012-03-31T10:28:59Z</time>
      </trkpt>
      <trkpt lat="45.24415" lon="5.56468">
        <ele>1220</ele>
        <time>2012-03-31T10:29:03Z</time>
      </trkpt>
      <trkpt lat="45.2441" lon="5.56461">
        <ele>1218</ele>
        <time>2012-03-31T10:29:07Z</time>
      </trkpt>
      <trkpt lat="45.24406" lon="5.56449">
        <ele>1218</ele>
        <time>2012-03-31T10:29:11Z</time>
      </trkpt>
      <trkpt lat="45.24412" lon="5.5644">
        <ele>1218</ele>
        <time>2012-03-31T10:29:16Z</time>
      </trkpt>
      <trkpt lat="45.24414" lon="5.56427">
        <ele>1217</ele>
        <time>2012-03-31T10:29:21Z</time>
      </trkpt>
      <trkpt lat="45.24411" lon="5.56417">
        <ele>1217</ele>
        <time>2012-03-31T10:29:24Z</time>
      </trkpt>
      <trkpt lat="45.24408" lon="5.5641">
        <ele>1218</ele>
        <time>2012-03-31T10:29:26Z</time>
      </trkpt>
      <trkpt lat="45.24405" lon="5.56398">
        <ele>1219</ele>
        <time>2012-03-31T10:29:29Z</time>
      </trkpt>
      <trkpt lat="45.24404" lon="5.56388">
        <ele>1219</ele>
        <time>2012-03-31T10:29:32Z</time>
      </trkpt>
      <trkpt lat="45.24401" lon="5.56379">
        <ele>1218</ele>
        <time>2012-03-31T10:29:35Z</time>
      </trkpt>
      <trkpt lat="45.24397" lon="5.5637">
        <ele>1218</ele>
        <time>2012-03-31T10:29:38Z</time>
      </trkpt>
      <trkpt lat="45.24396" lon="5.56368">
        <ele>1219</ele>
        <time>2012-03-31T10:29:39Z</time>
      </trkpt>
      <trkpt lat="45.2439" lon="5.56351">
        <ele>1218</ele>
        <time>2012-03-31T10:29:44Z</time>
      </trkpt>
      <trkpt lat="45.24388" lon="5.56338">
        <ele>1218</ele>
        <time>2012-03-31T10:29:47Z</time>
      </trkpt>
      <trkpt lat="45.24387" lon="5.56327">
        <ele>1219</ele>
        <time>2012-03-31T10:29:50Z</time>
      </trkpt>
      <trkpt lat="45.24385" lon="5.56315">
        <ele>1220</ele>
        <time>2012-03-31T10:29:55Z</time>
      </trkpt>
      <trkpt lat="45.24386" lon="5.56304">
        <ele>1220</ele>
        <time>2012-03-31T10:29:58Z</time>
      </trkpt>
      <trkpt lat="45.24386" lon="5.56291">
        <ele>1222</ele>
        <time>2012-03-31T10:30:04Z</time>
      </trkpt>
      <trkpt lat="45.24386" lon="5.5628">
        <ele>1226</ele>
        <time>2012-03-31T10:30:09Z</time>
      </trkpt>
      <trkpt lat="45.24387" lon="5.56269">
        <ele>1227</ele>
        <time>2012-03-31T10:30:13Z</time>
      </trkpt>
      <trkpt lat="45.24385" lon="5.56258">
        <ele>1229</ele>
        <time>2012-03-31T10:30:17Z</time>
      </trkpt>
      <trkpt lat="45.24383" lon="5.56247">
        <ele>1226</ele>
        <time>2012-03-31T10:30:23Z</time>
      </trkpt>
      <trkpt lat="45.24379" lon="5.56237">
        <ele>1220</ele>
        <time>2012-03-31T10:30:28Z</time>
      </trkpt>
      <trkpt lat="45.24379" lon="5.56227">
        <ele>1222</ele>
        <time>2012-03-31T10:30:34Z</time>
      </trkpt>
      <trkpt lat="45.24381" lon="5.56214">
        <ele>1221</ele>
        <time>2012-03-31T10:30:40Z</time>
      </trkpt>
      <trkpt lat="45.24381" lon="5.56212">
        <ele>1220</ele>
        <time>2012-03-31T10:30:41Z</time>
      </trkpt>
      <trkpt lat="45.24384" lon="5.56193">
        <ele>1223</ele>
        <time>2012-03-31T10:30:49Z</time>
      </trkpt>
      <trkpt lat="45.24386" lon="5.56181">
        <ele>1223</ele>
        <time>2012-03-31T10:30:54Z</time>
      </trkpt>
      <trkpt lat="45.24383" lon="5.56173">
        <ele>1223</ele>
        <time>2012-03-31T10:30:58Z</time>
      </trkpt>
      <trkpt lat="45.24386" lon="5.56161">
        <ele>1223</ele>
        <time>2012-03-31T10:31:09Z</time>
      </trkpt>
      <trkpt lat="45.24386" lon="5.56149">
        <ele>1220</ele>
        <time>2012-03-31T10:31:15Z</time>
      </trkpt>
      <trkpt lat="45.24384" lon="5.56137">
        <ele>1220</ele>
        <time>2012-03-31T10:31:21Z</time>
      </trkpt>
      <trkpt lat="45.24382" lon="5.56125">
        <ele>1218</ele>
        <time>2012-03-31T10:31:29Z</time>
      </trkpt>
      <trkpt lat="45.2438" lon="5.56115">
        <ele>1218</ele>
        <time>2012-03-31T10:31:35Z</time>
      </trkpt>
      <trkpt lat="45.24382" lon="5.56104">
        <ele>1219</ele>
        <time>2012-03-31T10:31:40Z</time>
      </trkpt>
      <trkpt lat="45.24387" lon="5.56094">
        <ele>1216</ele>
        <time>2012-03-31T10:31:45Z</time>
      </trkpt>
      <trkpt lat="45.24388" lon="5.56092">
        <ele>1216</ele>
        <time>2012-03-31T10:31:46Z</time>
      </trkpt>
      <trkpt lat="45.24387" lon="5.56072">
        <ele>1210</ele>
        <time>2012-03-31T10:31:57Z</time>
      </trkpt>
      <trkpt lat="45.24388" lon="5.56062">
        <ele>1210</ele>
        <time>2012-03-31T10:32:01Z</time>
      </trkpt>
      <trkpt lat="45.24388" lon="5.5605">
        <ele>1207</ele>
        <time>2012-03-31T10:32:04Z</time>
      </trkpt>
      <trkpt lat="45.24383" lon="5.56039">
        <ele>1203</ele>
        <time>2012-03-31T10:32:07Z</time>
      </trkpt>
      <trkpt lat="45.24377" lon="5.56036">
        <ele>1200</ele>
        <time>2012-03-31T10:32:09Z</time>
      </trkpt>
      <trkpt lat="45.24369" lon="5.56037">
        <ele>1198</ele>
        <time>2012-03-31T10:32:12Z</time>
      </trkpt>
      <trkpt lat="45.24361" lon="5.56042">
        <ele>1196</ele>
        <time>2012-03-31T10:32:15Z</time>
      </trkpt>
      <trkpt lat="45.24355" lon="5.56046">
        <ele>1195</ele>
        <time>2012-03-31T10:32:17Z</time>
      </trkpt>
      <trkpt lat="45.24349" lon="5.5605">
        <ele>1193</ele>
        <time>2012-03-31T10:32:19Z</time>
      </trkpt>
      <trkpt lat="45.24342" lon="5.56055">
        <ele>1193</ele>
        <time>2012-03-31T10:32:21Z</time>
      </trkpt>
      <trkpt lat="45.24336" lon="5.56059">
        <ele>1193</ele>
        <time>2012-03-31T10:32:23Z</time>
      </trkpt>
      <trkpt lat="45.2433" lon="5.56064">
        <ele>1192</ele>
        <time>2012-03-31T10:32:25Z</time>
      </trkpt>
      <trkpt lat="45.24324" lon="5.56071">
        <ele>1191</ele>
        <time>2012-03-31T10:32:27Z</time>
      </trkpt>
      <trkpt lat="45.24317" lon="5.56076">
        <ele>1191</ele>
        <time>2012-03-31T10:32:29Z</time>
      </trkpt>
      <trkpt lat="45.24309" lon="5.56076">
        <ele>1190</ele>
        <time>2012-03-31T10:32:32Z</time>
      </trkpt>
      <trkpt lat="45.24302" lon="5.56073">
        <ele>1191</ele>
        <time>2012-03-31T10:32:35Z</time>
      </trkpt>
      <trkpt lat="45.24295" lon="5.56067">
        <ele>1192</ele>
        <time>2012-03-31T10:32:39Z</time>
      </trkpt>
      <trkpt lat="45.2429" lon="5.56058">
        <ele>1191</ele>
        <time>2012-03-31T10:32:47Z</time>
      </trkpt>
      <trkpt lat="45.2429" lon="5.56055">
        <ele>1191</ele>
        <time>2012-03-31T10:32:47Z</time>
      </trkpt>
      <trkpt lat="45.24285" lon="5.56037">
        <ele>1179</ele>
        <time>2012-03-31T10:32:54Z</time>
      </trkpt>
      <trkpt lat="45.24283" lon="5.56025">
        <ele>1177</ele>
        <time>2012-03-31T10:32:57Z</time>
      </trkpt>
      <trkpt lat="45.24279" lon="5.56014">
        <ele>1174</ele>
        <time>2012-03-31T10:33:00Z</time>
      </trkpt>
      <trkpt lat="45.24272" lon="5.56007">
        <ele>1174</ele>
        <time>2012-03-31T10:33:04Z</time>
      </trkpt>
      <trkpt lat="45.24271" lon="5.55995">
        <ele>1176</ele>
        <time>2012-03-31T10:33:06Z</time>
      </trkpt>
      <trkpt lat="45.24266" lon="5.55988">
        <ele>1171</ele>
        <time>2012-03-31T10:33:08Z</time>
      </trkpt>
      <trkpt lat="45.24257" lon="5.55985">
        <ele>1170</ele>
        <time>2012-03-31T10:33:10Z</time>
      </trkpt>
      <trkpt lat="45.24252" lon="5.55985">
        <ele>1169</ele>
        <time>2012-03-31T10:33:11Z</time>
      </trkpt>
      <trkpt lat="45.24246" lon="5.55985">
        <ele>1169</ele>
        <time>2012-03-31T10:33:12Z</time>
      </trkpt>
      <trkpt lat="45.2424" lon="5.55986">
        <ele>1170</ele>
        <time>2012-03-31T10:33:13Z</time>
      </trkpt>
      <trkpt lat="45.24235" lon="5.55987">
        <ele>1169</ele>
        <time>2012-03-31T10:33:14Z</time>
      </trkpt>
      <trkpt lat="45.24229" lon="5.55989">
        <ele>1170</ele>
        <time>2012-03-31T10:33:15Z</time>
      </trkpt>
      <trkpt lat="45.24224" lon="5.55991">
        <ele>1169</ele>
        <time>2012-03-31T10:33:17Z</time>
      </trkpt>
      <trkpt lat="45.24219" lon="5.55994">
        <ele>1169</ele>
        <time>2012-03-31T10:33:17Z</time>
      </trkpt>
      <trkpt lat="45.24215" lon="5.55996">
        <ele>1169</ele>
        <time>2012-03-31T10:33:18Z</time>
      </trkpt>
      <trkpt lat="45.24206" lon="5.56">
        <ele>1168</ele>
        <time>2012-03-31T10:33:20Z</time>
      </trkpt>
      <trkpt lat="45.24199" lon="5.56005">
        <ele>1167</ele>
        <time>2012-03-31T10:33:22Z</time>
      </trkpt>
      <trkpt lat="45.24194" lon="5.56009">
        <ele>1168</ele>
        <time>2012-03-31T10:33:24Z</time>
      </trkpt>
      <trkpt lat="45.24188" lon="5.5601">
        <ele>1168</ele>
        <time>2012-03-31T10:33:26Z</time>
      </trkpt>
      <trkpt lat="45.2418" lon="5.56005">
        <ele>1169</ele>
        <time>2012-03-31T10:33:28Z</time>
      </trkpt>
      <trkpt lat="45.24174" lon="5.55997">
        <ele>1170</ele>
        <time>2012-03-31T10:33:30Z</time>
      </trkpt>
      <trkpt lat="45.24171" lon="5.55991">
        <ele>1171</ele>
        <time>2012-03-31T10:33:31Z</time>
      </trkpt>
      <trkpt lat="45.24168" lon="5.55985">
        <ele>1172</ele>
        <time>2012-03-31T10:33:32Z</time>
      </trkpt>
      <trkpt lat="45.24166" lon="5.55979">
        <ele>1172</ele>
        <time>2012-03-31T10:33:33Z</time>
      </trkpt>
      <trkpt lat="45.24164" lon="5.55972">
        <ele>1174</ele>
        <time>2012-03-31T10:33:34Z</time>
      </trkpt>
      <trkpt lat="45.24162" lon="5.55965">
        <ele>1175</ele>
        <time>2012-03-31T10:33:35Z</time>
      </trkpt>
      <trkpt lat="45.2416" lon="5.55958">
        <ele>1176</ele>
        <time>2012-03-31T10:33:36Z</time>
      </trkpt>
      <trkpt lat="45.24158" lon="5.55946">
        <ele>1176</ele>
        <time>2012-03-31T10:33:38Z</time>
      </trkpt>
      <trkpt lat="45.24157" lon="5.55934">
        <ele>1179</ele>
        <time>2012-03-31T10:33:40Z</time>
      </trkpt>
      <trkpt lat="45.24156" lon="5.55923">
        <ele>1179</ele>
        <time>2012-03-31T10:33:42Z</time>
      </trkpt>
      <trkpt lat="45.24159" lon="5.55915">
        <ele>1181</ele>
        <time>2012-03-31T10:33:44Z</time>
      </trkpt>
      <trkpt lat="45.24163" lon="5.55905">
        <ele>1182</ele>
        <time>2012-03-31T10:33:47Z</time>
      </trkpt>
      <trkpt lat="45.24164" lon="5.55901">
        <ele>1182</ele>
        <time>2012-03-31T10:33:48Z</time>
      </trkpt>
      <trkpt lat="45.24161" lon="5.55887">
        <ele>1182</ele>
        <time>2012-03-31T10:33:52Z</time>
      </trkpt>
      <trkpt lat="45.24157" lon="5.55879">
        <ele>1183</ele>
        <time>2012-03-31T10:33:54Z</time>
      </trkpt>
      <trkpt lat="45.24155" lon="5.55867">
        <ele>1188</ele>
        <time>2012-03-31T10:33:57Z</time>
      </trkpt>
      <trkpt lat="45.24154" lon="5.55859">
        <ele>1191</ele>
        <time>2012-03-31T10:33:59Z</time>
      </trkpt>
      <trkpt lat="45.24155" lon="5.55849">
        <ele>1191</ele>
        <time>2012-03-31T10:34:01Z</time>
      </trkpt>
      <trkpt lat="45.24157" lon="5.5584">
        <ele>1189</ele>
        <time>2012-03-31T10:34:03Z</time>
      </trkpt>
      <trkpt lat="45.24157" lon="5.55832">
        <ele>1190</ele>
        <time>2012-03-31T10:34:05Z</time>
      </trkpt>
      <trkpt lat="45.24158" lon="5.55823">
        <ele>1188</ele>
        <time>2012-03-31T10:34:07Z</time>
      </trkpt>
      <trkpt lat="45.24159" lon="5.55814">
        <ele>1188</ele>
        <time>2012-03-31T10:34:09Z</time>
      </trkpt>
      <trkpt lat="45.24162" lon="5.55803">
        <ele>1186</ele>
        <time>2012-03-31T10:34:12Z</time>
      </trkpt>
      <trkpt lat="45.24165" lon="5.55792">
        <ele>1186</ele>
        <time>2012-03-31T10:34:16Z</time>
      </trkpt>
      <trkpt lat="45.2417" lon="5.55781">
        <ele>1185</ele>
        <time>2012-03-31T10:34:20Z</time>
      </trkpt>
      <trkpt lat="45.24173" lon="5.55771">
        <ele>1182</ele>
        <time>2012-03-31T10:34:23Z</time>
      </trkpt>
      <trkpt lat="45.24177" lon="5.55761">
        <ele>1181</ele>
        <time>2012-03-31T10:34:27Z</time>
      </trkpt>
      <trkpt lat="45.24179" lon="5.55751">
        <ele>1178</ele>
        <time>2012-03-31T10:34:31Z</time>
      </trkpt>
      <trkpt lat="45.24184" lon="5.55744">
        <ele>1179</ele>
        <time>2012-03-31T10:34:32Z</time>
      </trkpt>
      <trkpt lat="45.2419" lon="5.55736">
        <ele>1178</ele>
        <time>2012-03-31T10:34:34Z</time>
      </trkpt>
      <trkpt lat="45.24195" lon="5.55728">
        <ele>1175</ele>
        <time>2012-03-31T10:34:36Z</time>
      </trkpt>
      <trkpt lat="45.24199" lon="5.55719">
        <ele>1175</ele>
        <time>2012-03-31T10:34:38Z</time>
      </trkpt>
      <trkpt lat="45.24203" lon="5.5571">
        <ele>1173</ele>
        <time>2012-03-31T10:34:40Z</time>
      </trkpt>
      <trkpt lat="45.24203" lon="5.55701">
        <ele>1169</ele>
        <time>2012-03-31T10:34:42Z</time>
      </trkpt>
      <trkpt lat="45.24203" lon="5.55691">
        <ele>1168</ele>
        <time>2012-03-31T10:34:44Z</time>
      </trkpt>
      <trkpt lat="45.24204" lon="5.55682">
        <ele>1170</ele>
        <time>2012-03-31T10:34:46Z</time>
      </trkpt>
      <trkpt lat="45.24206" lon="5.55673">
        <ele>1168</ele>
        <time>2012-03-31T10:34:49Z</time>
      </trkpt>
      <trkpt lat="45.24207" lon="5.55668">
        <ele>1168</ele>
        <time>2012-03-31T10:34:49Z</time>
      </trkpt>
      <trkpt lat="45.24211" lon="5.55654">
        <ele>1166</ele>
        <time>2012-03-31T10:34:52Z</time>
      </trkpt>
      <trkpt lat="45.24214" lon="5.55645">
        <ele>1166</ele>
        <time>2012-03-31T10:34:54Z</time>
      </trkpt>
      <trkpt lat="45.24217" lon="5.55638">
        <ele>1166</ele>
        <time>2012-03-31T10:34:56Z</time>
      </trkpt>
      <trkpt lat="45.24221" lon="5.5563">
        <ele>1166</ele>
        <time>2012-03-31T10:34:58Z</time>
      </trkpt>
      <trkpt lat="45.24224" lon="5.55622">
        <ele>1165</ele>
        <time>2012-03-31T10:35:00Z</time>
      </trkpt>
      <trkpt lat="45.24226" lon="5.55613">
        <ele>1164</ele>
        <time>2012-03-31T10:35:02Z</time>
      </trkpt>
      <trkpt lat="45.24227" lon="5.55604">
        <ele>1164</ele>
        <time>2012-03-31T10:35:04Z</time>
      </trkpt>
      <trkpt lat="45.24226" lon="5.55593">
        <ele>1163</ele>
        <time>2012-03-31T10:35:08Z</time>
      </trkpt>
      <trkpt lat="45.24221" lon="5.55592">
        <ele>1163</ele>
        <time>2012-03-31T10:35:10Z</time>
      </trkpt>
      <trkpt lat="45.24214" lon="5.55595">
        <ele>1161</ele>
        <time>2012-03-31T10:35:12Z</time>
      </trkpt>
      <trkpt lat="45.24206" lon="5.556">
        <ele>1161</ele>
        <time>2012-03-31T10:35:14Z</time>
      </trkpt>
      <trkpt lat="45.24201" lon="5.55601">
        <ele>1160</ele>
        <time>2012-03-31T10:35:15Z</time>
      </trkpt>
      <trkpt lat="45.24196" lon="5.55603">
        <ele>1160</ele>
        <time>2012-03-31T10:35:16Z</time>
      </trkpt>
      <trkpt lat="45.24191" lon="5.55604">
        <ele>1160</ele>
        <time>2012-03-31T10:35:17Z</time>
      </trkpt>
      <trkpt lat="45.24183" lon="5.55605">
        <ele>1160</ele>
        <time>2012-03-31T10:35:19Z</time>
      </trkpt>
      <trkpt lat="45.24176" lon="5.55606">
        <ele>1161</ele>
        <time>2012-03-31T10:35:21Z</time>
      </trkpt>
      <trkpt lat="45.24168" lon="5.55606">
        <ele>1161</ele>
        <time>2012-03-31T10:35:24Z</time>
      </trkpt>
      <trkpt lat="45.2416" lon="5.55604">
        <ele>1161</ele>
        <time>2012-03-31T10:35:27Z</time>
      </trkpt>
      <trkpt lat="45.24152" lon="5.55603">
        <ele>1162</ele>
        <time>2012-03-31T10:35:29Z</time>
      </trkpt>
      <trkpt lat="45.24147" lon="5.55602">
        <ele>1160</ele>
        <time>2012-03-31T10:35:30Z</time>
      </trkpt>
      <trkpt lat="45.24142" lon="5.556">
        <ele>1159</ele>
        <time>2012-03-31T10:35:31Z</time>
      </trkpt>
      <trkpt lat="45.24138" lon="5.55598">
        <ele>1160</ele>
        <time>2012-03-31T10:35:32Z</time>
      </trkpt>
      <trkpt lat="45.2413" lon="5.55593">
        <ele>1158</ele>
        <time>2012-03-31T10:35:34Z</time>
      </trkpt>
      <trkpt lat="45.24125" lon="5.55588">
        <ele>1158</ele>
        <time>2012-03-31T10:35:36Z</time>
      </trkpt>
      <trkpt lat="45.24121" lon="5.5558">
        <ele>1159</ele>
        <time>2012-03-31T10:35:38Z</time>
      </trkpt>
      <trkpt lat="45.2412" lon="5.55568">
        <ele>1155</ele>
        <time>2012-03-31T10:35:42Z</time>
      </trkpt>
      <trkpt lat="45.24123" lon="5.55557">
        <ele>1155</ele>
        <time>2012-03-31T10:35:43Z</time>
      </trkpt>
      <trkpt lat="45.24125" lon="5.55545">
        <ele>1157</ele>
        <time>2012-03-31T10:35:46Z</time>
      </trkpt>
      <trkpt lat="45.24121" lon="5.55534">
        <ele>1156</ele>
        <time>2012-03-31T10:35:49Z</time>
      </trkpt>
      <trkpt lat="45.24119" lon="5.5553">
        <ele>1157</ele>
        <time>2012-03-31T10:35:50Z</time>
      </trkpt>
      <trkpt lat="45.24113" lon="5.5552">
        <ele>1156</ele>
        <time>2012-03-31T10:35:53Z</time>
      </trkpt>
      <trkpt lat="45.24109" lon="5.55512">
        <ele>1156</ele>
        <time>2012-03-31T10:35:55Z</time>
      </trkpt>
      <trkpt lat="45.24105" lon="5.55504">
        <ele>1156</ele>
        <time>2012-03-31T10:35:57Z</time>
      </trkpt>
      <trkpt lat="45.24099" lon="5.55495">
        <ele>1157</ele>
        <time>2012-03-31T10:36:00Z</time>
      </trkpt>
      <trkpt lat="45.24094" lon="5.55486">
        <ele>1157</ele>
        <time>2012-03-31T10:36:03Z</time>
      </trkpt>
      <trkpt lat="45.24089" lon="5.55478">
        <ele>1157</ele>
        <time>2012-03-31T10:36:06Z</time>
      </trkpt>
      <trkpt lat="45.24085" lon="5.55467">
        <ele>1155</ele>
        <time>2012-03-31T10:36:10Z</time>
      </trkpt>
      <trkpt lat="45.24083" lon="5.55455">
        <ele>1155</ele>
        <time>2012-03-31T10:36:13Z</time>
      </trkpt>
      <trkpt lat="45.24085" lon="5.55442">
        <ele>1154</ele>
        <time>2012-03-31T10:36:15Z</time>
      </trkpt>
      <trkpt lat="45.24086" lon="5.55436">
        <ele>1153</ele>
        <time>2012-03-31T10:36:16Z</time>
      </trkpt>
      <trkpt lat="45.24088" lon="5.55425">
        <ele>1153</ele>
        <time>2012-03-31T10:36:18Z</time>
      </trkpt>
      <trkpt lat="45.24092" lon="5.55414">
        <ele>1152</ele>
        <time>2012-03-31T10:36:21Z</time>
      </trkpt>
      <trkpt lat="45.24097" lon="5.55406">
        <ele>1150</ele>
        <time>2012-03-31T10:36:24Z</time>
      </trkpt>
      <trkpt lat="45.24101" lon="5.55396">
        <ele>1148</ele>
        <time>2012-03-31T10:36:27Z</time>
      </trkpt>
      <trkpt lat="45.24104" lon="5.55387">
        <ele>1145</ele>
        <time>2012-03-31T10:36:30Z</time>
      </trkpt>
      <trkpt lat="45.2411" lon="5.55378">
        <ele>1145</ele>
        <time>2012-03-31T10:36:33Z</time>
      </trkpt>
      <trkpt lat="45.24115" lon="5.55371">
        <ele>1145</ele>
        <time>2012-03-31T10:36:35Z</time>
      </trkpt>
      <trkpt lat="45.24119" lon="5.55364">
        <ele>1144</ele>
        <time>2012-03-31T10:36:37Z</time>
      </trkpt>
      <trkpt lat="45.24124" lon="5.55353">
        <ele>1144</ele>
        <time>2012-03-31T10:36:40Z</time>
      </trkpt>
      <trkpt lat="45.24128" lon="5.55344">
        <ele>1146</ele>
        <time>2012-03-31T10:36:43Z</time>
      </trkpt>
      <trkpt lat="45.24127" lon="5.55333">
        <ele>1146</ele>
        <time>2012-03-31T10:36:46Z</time>
      </trkpt>
      <trkpt lat="45.24125" lon="5.55321">
        <ele>1146</ele>
        <time>2012-03-31T10:36:49Z</time>
      </trkpt>
      <trkpt lat="45.24123" lon="5.55313">
        <ele>1145</ele>
        <time>2012-03-31T10:36:51Z</time>
      </trkpt>
      <trkpt lat="45.24123" lon="5.55308">
        <ele>1145</ele>
        <time>2012-03-31T10:36:52Z</time>
      </trkpt>
      <trkpt lat="45.2412" lon="5.55295">
        <ele>1144</ele>
        <time>2012-03-31T10:36:55Z</time>
      </trkpt>
      <trkpt lat="45.2412" lon="5.55284">
        <ele>1144</ele>
        <time>2012-03-31T10:36:57Z</time>
      </trkpt>
      <trkpt lat="45.2412" lon="5.55275">
        <ele>1144</ele>
        <time>2012-03-31T10:36:59Z</time>
      </trkpt>
      <trkpt lat="45.24118" lon="5.55266">
        <ele>1143</ele>
        <time>2012-03-31T10:37:01Z</time>
      </trkpt>
      <trkpt lat="45.24115" lon="5.55255">
        <ele>1141</ele>
        <time>2012-03-31T10:37:04Z</time>
      </trkpt>
      <trkpt lat="45.24112" lon="5.55247">
        <ele>1141</ele>
        <time>2012-03-31T10:37:06Z</time>
      </trkpt>
      <trkpt lat="45.2411" lon="5.55238">
        <ele>1140</ele>
        <time>2012-03-31T10:37:08Z</time>
      </trkpt>
      <trkpt lat="45.24107" lon="5.55229">
        <ele>1139</ele>
        <time>2012-03-31T10:37:10Z</time>
      </trkpt>
      <trkpt lat="45.24104" lon="5.55219">
        <ele>1137</ele>
        <time>2012-03-31T10:37:12Z</time>
      </trkpt>
      <trkpt lat="45.24101" lon="5.55211">
        <ele>1137</ele>
        <time>2012-03-31T10:37:14Z</time>
      </trkpt>
      <trkpt lat="45.24097" lon="5.55201">
        <ele>1137</ele>
        <time>2012-03-31T10:37:17Z</time>
      </trkpt>
      <trkpt lat="45.24095" lon="5.5519">
        <ele>1136</ele>
        <time>2012-03-31T10:37:21Z</time>
      </trkpt>
      <trkpt lat="45.24094" lon="5.55178">
        <ele>1135</ele>
        <time>2012-03-31T10:37:25Z</time>
      </trkpt>
      <trkpt lat="45.24098" lon="5.55169">
        <ele>1134</ele>
        <time>2012-03-31T10:37:29Z</time>
      </trkpt>
      <trkpt lat="45.241" lon="5.55158">
        <ele>1133</ele>
        <time>2012-03-31T10:37:34Z</time>
      </trkpt>
      <trkpt lat="45.24095" lon="5.55151">
        <ele>1132</ele>
        <time>2012-03-31T10:37:38Z</time>
      </trkpt>
      <trkpt lat="45.24088" lon="5.55148">
        <ele>1132</ele>
        <time>2012-03-31T10:37:40Z</time>
      </trkpt>
      <trkpt lat="45.24082" lon="5.55143">
        <ele>1132</ele>
        <time>2012-03-31T10:37:42Z</time>
      </trkpt>
      <trkpt lat="45.24079" lon="5.55131">
        <ele>1131</ele>
        <time>2012-03-31T10:37:45Z</time>
      </trkpt>
      <trkpt lat="45.24079" lon="5.5512">
        <ele>1131</ele>
        <time>2012-03-31T10:37:48Z</time>
      </trkpt>
      <trkpt lat="45.24081" lon="5.55112">
        <ele>1132</ele>
        <time>2012-03-31T10:37:50Z</time>
      </trkpt>
      <trkpt lat="45.24082" lon="5.55103">
        <ele>1131</ele>
        <time>2012-03-31T10:37:52Z</time>
      </trkpt>
      <trkpt lat="45.24082" lon="5.55099">
        <ele>1131</ele>
        <time>2012-03-31T10:37:53Z</time>
      </trkpt>
      <trkpt lat="45.24079" lon="5.55081">
        <ele>1130</ele>
        <time>2012-03-31T10:37:57Z</time>
      </trkpt>
      <trkpt lat="45.24077" lon="5.55071">
        <ele>1130</ele>
        <time>2012-03-31T10:37:59Z</time>
      </trkpt>
      <trkpt lat="45.24076" lon="5.5506">
        <ele>1130</ele>
        <time>2012-03-31T10:38:01Z</time>
      </trkpt>
      <trkpt lat="45.24075" lon="5.55049">
        <ele>1130</ele>
        <time>2012-03-31T10:38:03Z</time>
      </trkpt>
      <trkpt lat="45.24074" lon="5.55039">
        <ele>1131</ele>
        <time>2012-03-31T10:38:05Z</time>
      </trkpt>
      <trkpt lat="45.24074" lon="5.55029">
        <ele>1131</ele>
        <time>2012-03-31T10:38:07Z</time>
      </trkpt>
      <trkpt lat="45.24075" lon="5.5502">
        <ele>1130</ele>
        <time>2012-03-31T10:38:09Z</time>
      </trkpt>
      <trkpt lat="45.24076" lon="5.55011">
        <ele>1131</ele>
        <time>2012-03-31T10:38:11Z</time>
      </trkpt>
      <trkpt lat="45.24076" lon="5.54998">
        <ele>1129</ele>
        <time>2012-03-31T10:38:14Z</time>
      </trkpt>
      <trkpt lat="45.24077" lon="5.54987">
        <ele>1127</ele>
        <time>2012-03-31T10:38:17Z</time>
      </trkpt>
      <trkpt lat="45.24077" lon="5.54977">
        <ele>1126</ele>
        <time>2012-03-31T10:38:20Z</time>
      </trkpt>
      <trkpt lat="45.24078" lon="5.54967">
        <ele>1127</ele>
        <time>2012-03-31T10:38:23Z</time>
      </trkpt>
      <trkpt lat="45.24079" lon="5.54956">
        <ele>1126</ele>
        <time>2012-03-31T10:38:26Z</time>
      </trkpt>
      <trkpt lat="45.2408" lon="5.54946">
        <ele>1123</ele>
        <time>2012-03-31T10:38:29Z</time>
      </trkpt>
      <trkpt lat="45.24082" lon="5.54936">
        <ele>1123</ele>
        <time>2012-03-31T10:38:32Z</time>
      </trkpt>
      <trkpt lat="45.24084" lon="5.54926">
        <ele>1122</ele>
        <time>2012-03-31T10:38:35Z</time>
      </trkpt>
      <trkpt lat="45.24084" lon="5.54913">
        <ele>1121</ele>
        <time>2012-03-31T10:38:38Z</time>
      </trkpt>
      <trkpt lat="45.24085" lon="5.54904">
        <ele>1121</ele>
        <time>2012-03-31T10:38:40Z</time>
      </trkpt>
      <trkpt lat="45.24088" lon="5.54895">
        <ele>1121</ele>
        <time>2012-03-31T10:38:42Z</time>
      </trkpt>
      <trkpt lat="45.24092" lon="5.54886">
        <ele>1121</ele>
        <time>2012-03-31T10:38:44Z</time>
      </trkpt>
      <trkpt lat="45.24095" lon="5.54876">
        <ele>1122</ele>
        <time>2012-03-31T10:38:46Z</time>
      </trkpt>
      <trkpt lat="45.24099" lon="5.54865">
        <ele>1120</ele>
        <time>2012-03-31T10:38:49Z</time>
      </trkpt>
      <trkpt lat="45.24101" lon="5.54852">
        <ele>1118</ele>
        <time>2012-03-31T10:38:52Z</time>
      </trkpt>
      <trkpt lat="45.24101" lon="5.54843">
        <ele>1119</ele>
        <time>2012-03-31T10:38:54Z</time>
      </trkpt>
      <trkpt lat="45.24101" lon="5.54839">
        <ele>1118</ele>
        <time>2012-03-31T10:38:55Z</time>
      </trkpt>
      <trkpt lat="45.24101" lon="5.5482">
        <ele>1119</ele>
        <time>2012-03-31T10:39:00Z</time>
      </trkpt>
      <trkpt lat="45.24098" lon="5.54812">
        <ele>1120</ele>
        <time>2012-03-31T10:39:02Z</time>
      </trkpt>
      <trkpt lat="45.24095" lon="5.54804">
        <ele>1119</ele>
        <time>2012-03-31T10:39:04Z</time>
      </trkpt>
      <trkpt lat="45.24092" lon="5.54797">
        <ele>1119</ele>
        <time>2012-03-31T10:39:05Z</time>
      </trkpt>
      <trkpt lat="45.24087" lon="5.54787">
        <ele>1117</ele>
        <time>2012-03-31T10:39:07Z</time>
      </trkpt>
      <trkpt lat="45.24084" lon="5.54778">
        <ele>1117</ele>
        <time>2012-03-31T10:39:09Z</time>
      </trkpt>
      <trkpt lat="45.24081" lon="5.54766">
        <ele>1115</ele>
        <time>2012-03-31T10:39:12Z</time>
      </trkpt>
      <trkpt lat="45.2408" lon="5.54758">
        <ele>1115</ele>
        <time>2012-03-31T10:39:14Z</time>
      </trkpt>
      <trkpt lat="45.24078" lon="5.54745">
        <ele>1116</ele>
        <time>2012-03-31T10:39:17Z</time>
      </trkpt>
      <trkpt lat="45.24079" lon="5.54734">
        <ele>1108</ele>
        <time>2012-03-31T10:39:19Z</time>
      </trkpt>
      <trkpt lat="45.24078" lon="5.54725">
        <ele>1105</ele>
        <time>2012-03-31T10:39:22Z</time>
      </trkpt>
      <trkpt lat="45.24078" lon="5.54716">
        <ele>1106</ele>
        <time>2012-03-31T10:39:23Z</time>
      </trkpt>
      <trkpt lat="45.24077" lon="5.54704">
        <ele>1106</ele>
        <time>2012-03-31T10:39:26Z</time>
      </trkpt>
      <trkpt lat="45.24078" lon="5.54695">
        <ele>1107</ele>
        <time>2012-03-31T10:39:28Z</time>
      </trkpt>
      <trkpt lat="45.24081" lon="5.54686">
        <ele>1108</ele>
        <time>2012-03-31T10:39:30Z</time>
      </trkpt>
      <trkpt lat="45.24083" lon="5.54679">
        <ele>1107</ele>
        <time>2012-03-31T10:39:32Z</time>
      </trkpt>
      <trkpt lat="45.24086" lon="5.5467">
        <ele>1108</ele>
        <time>2012-03-31T10:39:34Z</time>
      </trkpt>
      <trkpt lat="45.24087" lon="5.5466">
        <ele>1107</ele>
        <time>2012-03-31T10:39:36Z</time>
      </trkpt>
      <trkpt lat="45.24086" lon="5.5465">
        <ele>1106</ele>
        <time>2012-03-31T10:39:38Z</time>
      </trkpt>
      <trkpt lat="45.24085" lon="5.54638">
        <ele>1105</ele>
        <time>2012-03-31T10:39:40Z</time>
      </trkpt>
      <trkpt lat="45.24084" lon="5.54627">
        <ele>1105</ele>
        <time>2012-03-31T10:39:42Z</time>
      </trkpt>
      <trkpt lat="45.24082" lon="5.54617">
        <ele>1105</ele>
        <time>2012-03-31T10:39:44Z</time>
      </trkpt>
      <trkpt lat="45.2408" lon="5.54608">
        <ele>1105</ele>
        <time>2012-03-31T10:39:46Z</time>
      </trkpt>
      <trkpt lat="45.24077" lon="5.54599">
        <ele>1105</ele>
        <time>2012-03-31T10:39:48Z</time>
      </trkpt>
      <trkpt lat="45.24074" lon="5.54591">
        <ele>1106</ele>
        <time>2012-03-31T10:39:50Z</time>
      </trkpt>
      <trkpt lat="45.24075" lon="5.54581">
        <ele>1106</ele>
        <time>2012-03-31T10:39:52Z</time>
      </trkpt>
      <trkpt lat="45.24074" lon="5.54571">
        <ele>1105</ele>
        <time>2012-03-31T10:39:54Z</time>
      </trkpt>
      <trkpt lat="45.24073" lon="5.54566">
        <ele>1105</ele>
        <time>2012-03-31T10:39:55Z</time>
      </trkpt>
      <trkpt lat="45.24066" lon="5.54553">
        <ele>1105</ele>
        <time>2012-03-31T10:39:58Z</time>
      </trkpt>
      <trkpt lat="45.24062" lon="5.54545">
        <ele>1104</ele>
        <time>2012-03-31T10:40:00Z</time>
      </trkpt>
      <trkpt lat="45.24055" lon="5.54538">
        <ele>1102</ele>
        <time>2012-03-31T10:40:02Z</time>
      </trkpt>
      <trkpt lat="45.2405" lon="5.5453">
        <ele>1101</ele>
        <time>2012-03-31T10:40:04Z</time>
      </trkpt>
      <trkpt lat="45.24046" lon="5.5452">
        <ele>1096</ele>
        <time>2012-03-31T10:40:06Z</time>
      </trkpt>
      <trkpt lat="45.24043" lon="5.5451">
        <ele>1097</ele>
        <time>2012-03-31T10:40:09Z</time>
      </trkpt>
      <trkpt lat="45.24038" lon="5.54501">
        <ele>1097</ele>
        <time>2012-03-31T10:40:12Z</time>
      </trkpt>
      <trkpt lat="45.24034" lon="5.54492">
        <ele>1091</ele>
        <time>2012-03-31T10:40:16Z</time>
      </trkpt>
      <trkpt lat="45.24031" lon="5.5448">
        <ele>1088</ele>
        <time>2012-03-31T10:40:21Z</time>
      </trkpt>
      <trkpt lat="45.24029" lon="5.5447">
        <ele>1089</ele>
        <time>2012-03-31T10:40:24Z</time>
      </trkpt>
      <trkpt lat="45.24028" lon="5.5446">
        <ele>1089</ele>
        <time>2012-03-31T10:40:26Z</time>
      </trkpt>
      <trkpt lat="45.24028" lon="5.54449">
        <ele>1090</ele>
        <time>2012-03-31T10:40:28Z</time>
      </trkpt>
      <trkpt lat="45.24029" lon="5.54438">
        <ele>1091</ele>
        <time>2012-03-31T10:40:30Z</time>
      </trkpt>
      <trkpt lat="45.24029" lon="5.54426">
        <ele>1091</ele>
        <time>2012-03-31T10:40:32Z</time>
      </trkpt>
      <trkpt lat="45.24029" lon="5.5442">
        <ele>1091</ele>
        <time>2012-03-31T10:40:33Z</time>
      </trkpt>
      <trkpt lat="45.24028" lon="5.54414">
        <ele>1091</ele>
        <time>2012-03-31T10:40:34Z</time>
      </trkpt>
      <trkpt lat="45.24026" lon="5.54407">
        <ele>1092</ele>
        <time>2012-03-31T10:40:35Z</time>
      </trkpt>
      <trkpt lat="45.24024" lon="5.54401">
        <ele>1091</ele>
        <time>2012-03-31T10:40:36Z</time>
      </trkpt>
      <trkpt lat="45.24022" lon="5.54395">
        <ele>1091</ele>
        <time>2012-03-31T10:40:37Z</time>
      </trkpt>
      <trkpt lat="45.24017" lon="5.54384">
        <ele>1092</ele>
        <time>2012-03-31T10:40:39Z</time>
      </trkpt>
      <trkpt lat="45.24014" lon="5.54374">
        <ele>1092</ele>
        <time>2012-03-31T10:40:41Z</time>
      </trkpt>
      <trkpt lat="45.24012" lon="5.54365">
        <ele>1092</ele>
        <time>2012-03-31T10:40:43Z</time>
      </trkpt>
      <trkpt lat="45.2401" lon="5.54355">
        <ele>1092</ele>
        <time>2012-03-31T10:40:45Z</time>
      </trkpt>
      <trkpt lat="45.24008" lon="5.54346">
        <ele>1092</ele>
        <time>2012-03-31T10:40:47Z</time>
      </trkpt>
      <trkpt lat="45.24006" lon="5.54334">
        <ele>1092</ele>
        <time>2012-03-31T10:40:50Z</time>
      </trkpt>
      <trkpt lat="45.24003" lon="5.54322">
        <ele>1090</ele>
        <time>2012-03-31T10:40:53Z</time>
      </trkpt>
      <trkpt lat="45.23997" lon="5.54312">
        <ele>1090</ele>
        <time>2012-03-31T10:40:56Z</time>
      </trkpt>
      <trkpt lat="45.23995" lon="5.54309">
        <ele>1089</ele>
        <time>2012-03-31T10:40:57Z</time>
      </trkpt>
      <trkpt lat="45.23989" lon="5.54299">
        <ele>1087</ele>
        <time>2012-03-31T10:41:00Z</time>
      </trkpt>
      <trkpt lat="45.23986" lon="5.54291">
        <ele>1087</ele>
        <time>2012-03-31T10:41:02Z</time>
      </trkpt>
      <trkpt lat="45.23981" lon="5.54285">
        <ele>1086</ele>
        <time>2012-03-31T10:41:04Z</time>
      </trkpt>
      <trkpt lat="45.23974" lon="5.54277">
        <ele>1086</ele>
        <time>2012-03-31T10:41:06Z</time>
      </trkpt>
      <trkpt lat="45.23968" lon="5.54269">
        <ele>1086</ele>
        <time>2012-03-31T10:41:08Z</time>
      </trkpt>
      <trkpt lat="45.23963" lon="5.54261">
        <ele>1084</ele>
        <time>2012-03-31T10:41:10Z</time>
      </trkpt>
      <trkpt lat="45.2396" lon="5.54253">
        <ele>1084</ele>
        <time>2012-03-31T10:41:12Z</time>
      </trkpt>
      <trkpt lat="45.23959" lon="5.54245">
        <ele>1083</ele>
        <time>2012-03-31T10:41:14Z</time>
      </trkpt>
      <trkpt lat="45.23957" lon="5.54236">
        <ele>1082</ele>
        <time>2012-03-31T10:41:16Z</time>
      </trkpt>
      <trkpt lat="45.23954" lon="5.54228">
        <ele>1081</ele>
        <time>2012-03-31T10:41:18Z</time>
      </trkpt>
      <trkpt lat="45.23952" lon="5.54219">
        <ele>1081</ele>
        <time>2012-03-31T10:41:20Z</time>
      </trkpt>
      <trkpt lat="45.2395" lon="5.5421">
        <ele>1081</ele>
        <time>2012-03-31T10:41:22Z</time>
      </trkpt>
      <trkpt lat="45.23948" lon="5.54201">
        <ele>1081</ele>
        <time>2012-03-31T10:41:24Z</time>
      </trkpt>
      <trkpt lat="45.23947" lon="5.5419">
        <ele>1081</ele>
        <time>2012-03-31T10:41:27Z</time>
      </trkpt>
      <trkpt lat="45.23946" lon="5.54178">
        <ele>1081</ele>
        <time>2012-03-31T10:41:30Z</time>
      </trkpt>
      <trkpt lat="45.23946" lon="5.5417">
        <ele>1082</ele>
        <time>2012-03-31T10:41:32Z</time>
      </trkpt>
      <trkpt lat="45.23946" lon="5.54158">
        <ele>1082</ele>
        <time>2012-03-31T10:41:35Z</time>
      </trkpt>
      <trkpt lat="45.23947" lon="5.54146">
        <ele>1083</ele>
        <time>2012-03-31T10:41:38Z</time>
      </trkpt>
      <trkpt lat="45.23947" lon="5.54138">
        <ele>1083</ele>
        <time>2012-03-31T10:41:40Z</time>
      </trkpt>
      <trkpt lat="45.23945" lon="5.54128">
        <ele>1081</ele>
        <time>2012-03-31T10:41:42Z</time>
      </trkpt>
      <trkpt lat="45.23941" lon="5.5412">
        <ele>1080</ele>
        <time>2012-03-31T10:41:44Z</time>
      </trkpt>
      <trkpt lat="45.23936" lon="5.54112">
        <ele>1080</ele>
        <time>2012-03-31T10:41:46Z</time>
      </trkpt>
      <trkpt lat="45.23932" lon="5.54101">
        <ele>1079</ele>
        <time>2012-03-31T10:41:48Z</time>
      </trkpt>
      <trkpt lat="45.23927" lon="5.54091">
        <ele>1079</ele>
        <time>2012-03-31T10:41:50Z</time>
      </trkpt>
      <trkpt lat="45.23924" lon="5.54081">
        <ele>1078</ele>
        <time>2012-03-31T10:41:52Z</time>
      </trkpt>
      <trkpt lat="45.23922" lon="5.54072">
        <ele>1078</ele>
        <time>2012-03-31T10:41:54Z</time>
      </trkpt>
      <trkpt lat="45.2392" lon="5.54064">
        <ele>1079</ele>
        <time>2012-03-31T10:41:56Z</time>
      </trkpt>
      <trkpt lat="45.23919" lon="5.5406">
        <ele>1078</ele>
        <time>2012-03-31T10:41:57Z</time>
      </trkpt>
      <trkpt lat="45.23919" lon="5.54042">
        <ele>1077</ele>
        <time>2012-03-31T10:42:02Z</time>
      </trkpt>
      <trkpt lat="45.23921" lon="5.54032">
        <ele>1076</ele>
        <time>2012-03-31T10:42:04Z</time>
      </trkpt>
      <trkpt lat="45.23923" lon="5.54023">
        <ele>1076</ele>
        <time>2012-03-31T10:42:06Z</time>
      </trkpt>
      <trkpt lat="45.23925" lon="5.54014">
        <ele>1075</ele>
        <time>2012-03-31T10:42:08Z</time>
      </trkpt>
      <trkpt lat="45.23927" lon="5.54005">
        <ele>1073</ele>
        <time>2012-03-31T10:42:10Z</time>
      </trkpt>
      <trkpt lat="45.23931" lon="5.53994">
        <ele>1072</ele>
        <time>2012-03-31T10:42:13Z</time>
      </trkpt>
      <trkpt lat="45.23937" lon="5.53985">
        <ele>1072</ele>
        <time>2012-03-31T10:42:16Z</time>
      </trkpt>
      <trkpt lat="45.23941" lon="5.53979">
        <ele>1071</ele>
        <time>2012-03-31T10:42:18Z</time>
      </trkpt>
      <trkpt lat="45.23946" lon="5.53974">
        <ele>1071</ele>
        <time>2012-03-31T10:42:20Z</time>
      </trkpt>
      <trkpt lat="45.23953" lon="5.53966">
        <ele>1070</ele>
        <time>2012-03-31T10:42:23Z</time>
      </trkpt>
      <trkpt lat="45.23959" lon="5.53958">
        <ele>1058</ele>
        <time>2012-03-31T10:42:44Z</time>
      </trkpt>
      <trkpt lat="45.23966" lon="5.5395">
        <ele>1059</ele>
        <time>2012-03-31T10:42:52Z</time>
      </trkpt>
      <trkpt lat="45.23974" lon="5.53946">
        <ele>1060</ele>
        <time>2012-03-31T10:42:56Z</time>
      </trkpt>
      <trkpt lat="45.23977" lon="5.53945">
        <ele>1060</ele>
        <time>2012-03-31T10:42:57Z</time>
      </trkpt>
      <trkpt lat="45.23988" lon="5.53944">
        <ele>1061</ele>
        <time>2012-03-31T10:43:01Z</time>
      </trkpt>
      <trkpt lat="45.23994" lon="5.53947">
        <ele>1061</ele>
        <time>2012-03-31T10:43:03Z</time>
      </trkpt>
      <trkpt lat="45.24" lon="5.53951">
        <ele>1061</ele>
        <time>2012-03-31T10:43:05Z</time>
      </trkpt>
      <trkpt lat="45.24006" lon="5.53954">
        <ele>1061</ele>
        <time>2012-03-31T10:43:07Z</time>
      </trkpt>
      <trkpt lat="45.24012" lon="5.53958">
        <ele>1061</ele>
        <time>2012-03-31T10:43:09Z</time>
      </trkpt>
      <trkpt lat="45.24017" lon="5.53962">
        <ele>1062</ele>
        <time>2012-03-31T10:43:11Z</time>
      </trkpt>
      <trkpt lat="45.24023" lon="5.53966">
        <ele>1063</ele>
        <time>2012-03-31T10:43:13Z</time>
      </trkpt>
      <trkpt lat="45.24029" lon="5.53968">
        <ele>1063</ele>
        <time>2012-03-31T10:43:15Z</time>
      </trkpt>
      <trkpt lat="45.24037" lon="5.53972">
        <ele>1063</ele>
        <time>2012-03-31T10:43:18Z</time>
      </trkpt>
      <trkpt lat="45.24043" lon="5.53975">
        <ele>1063</ele>
        <time>2012-03-31T10:43:20Z</time>
      </trkpt>
      <trkpt lat="45.2405" lon="5.5398">
        <ele>1062</ele>
        <time>2012-03-31T10:43:22Z</time>
      </trkpt>
      <trkpt lat="45.24057" lon="5.53986">
        <ele>1063</ele>
        <time>2012-03-31T10:43:24Z</time>
      </trkpt>
      <trkpt lat="45.24064" lon="5.53991">
        <ele>1062</ele>
        <time>2012-03-31T10:43:26Z</time>
      </trkpt>
      <trkpt lat="45.24069" lon="5.53998">
        <ele>1063</ele>
        <time>2012-03-31T10:43:28Z</time>
      </trkpt>
      <trkpt lat="45.24073" lon="5.54003">
        <ele>1064</ele>
        <time>2012-03-31T10:43:30Z</time>
      </trkpt>
      <trkpt lat="45.24079" lon="5.54009">
        <ele>1063</ele>
        <time>2012-03-31T10:43:32Z</time>
      </trkpt>
      <trkpt lat="45.24085" lon="5.54014">
        <ele>1061</ele>
        <time>2012-03-31T10:43:34Z</time>
      </trkpt>
      <trkpt lat="45.24091" lon="5.54018">
        <ele>1061</ele>
        <time>2012-03-31T10:43:36Z</time>
      </trkpt>
      <trkpt lat="45.24097" lon="5.54021">
        <ele>1061</ele>
        <time>2012-03-31T10:43:38Z</time>
      </trkpt>
      <trkpt lat="45.24104" lon="5.54025">
        <ele>1059</ele>
        <time>2012-03-31T10:43:40Z</time>
      </trkpt>
      <trkpt lat="45.24111" lon="5.54029">
        <ele>1060</ele>
        <time>2012-03-31T10:43:42Z</time>
      </trkpt>
      <trkpt lat="45.24117" lon="5.54033">
        <ele>1058</ele>
        <time>2012-03-31T10:43:44Z</time>
      </trkpt>
      <trkpt lat="45.24124" lon="5.54038">
        <ele>1057</ele>
        <time>2012-03-31T10:43:46Z</time>
      </trkpt>
      <trkpt lat="45.24131" lon="5.54041">
        <ele>1055</ele>
        <time>2012-03-31T10:43:48Z</time>
      </trkpt>
      <trkpt lat="45.24139" lon="5.54045">
        <ele>1056</ele>
        <time>2012-03-31T10:43:50Z</time>
      </trkpt>
      <trkpt lat="45.24145" lon="5.54048">
        <ele>1056</ele>
        <time>2012-03-31T10:43:52Z</time>
      </trkpt>
      <trkpt lat="45.24152" lon="5.5405">
        <ele>1057</ele>
        <time>2012-03-31T10:43:54Z</time>
      </trkpt>
      <trkpt lat="45.2416" lon="5.54051">
        <ele>1057</ele>
        <time>2012-03-31T10:43:57Z</time>
      </trkpt>
      <trkpt lat="45.24163" lon="5.54052">
        <ele>1057</ele>
        <time>2012-03-31T10:43:58Z</time>
      </trkpt>
      <trkpt lat="45.24175" lon="5.54056">
        <ele>1056</ele>
        <time>2012-03-31T10:44:03Z</time>
      </trkpt>
      <trkpt lat="45.24182" lon="5.5406">
        <ele>1056</ele>
        <time>2012-03-31T10:44:06Z</time>
      </trkpt>
      <trkpt lat="45.24189" lon="5.54061">
        <ele>1056</ele>
        <time>2012-03-31T10:44:08Z</time>
      </trkpt>
      <trkpt lat="45.24196" lon="5.54063">
        <ele>1058</ele>
        <time>2012-03-31T10:44:10Z</time>
      </trkpt>
      <trkpt lat="45.24204" lon="5.54065">
        <ele>1058</ele>
        <time>2012-03-31T10:44:12Z</time>
      </trkpt>
      <trkpt lat="45.24212" lon="5.54066">
        <ele>1057</ele>
        <time>2012-03-31T10:44:14Z</time>
      </trkpt>
      <trkpt lat="45.24219" lon="5.54068">
        <ele>1057</ele>
        <time>2012-03-31T10:44:16Z</time>
      </trkpt>
      <trkpt lat="45.24226" lon="5.54071">
        <ele>1057</ele>
        <time>2012-03-31T10:44:18Z</time>
      </trkpt>
      <trkpt lat="45.24232" lon="5.54073">
        <ele>1056</ele>
        <time>2012-03-31T10:44:20Z</time>
      </trkpt>
      <trkpt lat="45.24239" lon="5.54075">
        <ele>1056</ele>
        <time>2012-03-31T10:44:22Z</time>
      </trkpt>
      <trkpt lat="45.24246" lon="5.54077">
        <ele>1056</ele>
        <time>2012-03-31T10:44:24Z</time>
      </trkpt>
      <trkpt lat="45.24252" lon="5.54078">
        <ele>1057</ele>
        <time>2012-03-31T10:44:26Z</time>
      </trkpt>
      <trkpt lat="45.2426" lon="5.54078">
        <ele>1056</ele>
        <time>2012-03-31T10:44:29Z</time>
      </trkpt>
      <trkpt lat="45.24268" lon="5.54082">
        <ele>1057</ele>
        <time>2012-03-31T10:44:32Z</time>
      </trkpt>
      <trkpt lat="45.24274" lon="5.54084">
        <ele>1057</ele>
        <time>2012-03-31T10:44:34Z</time>
      </trkpt>
      <trkpt lat="45.24281" lon="5.54088">
        <ele>1057</ele>
        <time>2012-03-31T10:44:36Z</time>
      </trkpt>
      <trkpt lat="45.24288" lon="5.54093">
        <ele>1058</ele>
        <time>2012-03-31T10:44:38Z</time>
      </trkpt>
      <trkpt lat="45.24296" lon="5.54099">
        <ele>1058</ele>
        <time>2012-03-31T10:44:40Z</time>
      </trkpt>
      <trkpt lat="45.24303" lon="5.54103">
        <ele>1058</ele>
        <time>2012-03-31T10:44:42Z</time>
      </trkpt>
      <trkpt lat="45.24309" lon="5.54107">
        <ele>1059</ele>
        <time>2012-03-31T10:44:44Z</time>
      </trkpt>
      <trkpt lat="45.24315" lon="5.54111">
        <ele>1058</ele>
        <time>2012-03-31T10:44:46Z</time>
      </trkpt>
      <trkpt lat="45.24321" lon="5.54115">
        <ele>1058</ele>
        <time>2012-03-31T10:44:48Z</time>
      </trkpt>
      <trkpt lat="45.24327" lon="5.5412">
        <ele>1058</ele>
        <time>2012-03-31T10:44:50Z</time>
      </trkpt>
      <trkpt lat="45.24335" lon="5.54125">
        <ele>1058</ele>
        <time>2012-03-31T10:44:53Z</time>
      </trkpt>
      <trkpt lat="45.24342" lon="5.54131">
        <ele>1058</ele>
        <time>2012-03-31T10:44:56Z</time>
      </trkpt>
      <trkpt lat="45.24349" lon="5.54139">
        <ele>1059</ele>
        <time>2012-03-31T10:44:59Z</time>
      </trkpt>
      <trkpt lat="45.24351" lon="5.54142">
        <ele>1059</ele>
        <time>2012-03-31T10:45:00Z</time>
      </trkpt>
      <trkpt lat="45.2436" lon="5.54151">
        <ele>1059</ele>
        <time>2012-03-31T10:45:03Z</time>
      </trkpt>
      <trkpt lat="45.24366" lon="5.54157">
        <ele>1059</ele>
        <time>2012-03-31T10:45:05Z</time>
      </trkpt>
      <trkpt lat="45.24371" lon="5.54163">
        <ele>1059</ele>
        <time>2012-03-31T10:45:07Z</time>
      </trkpt>
      <trkpt lat="45.24377" lon="5.5417">
        <ele>1059</ele>
        <time>2012-03-31T10:45:09Z</time>
      </trkpt>
      <trkpt lat="45.24382" lon="5.54176">
        <ele>1058</ele>
        <time>2012-03-31T10:45:11Z</time>
      </trkpt>
      <trkpt lat="45.24385" lon="5.5418">
        <ele>1057</ele>
        <time>2012-03-31T10:45:12Z</time>
      </trkpt>
      <trkpt lat="45.24389" lon="5.54183">
        <ele>1056</ele>
        <time>2012-03-31T10:45:13Z</time>
      </trkpt>
      <trkpt lat="45.24393" lon="5.54186">
        <ele>1053</ele>
        <time>2012-03-31T10:45:15Z</time>
      </trkpt>
      <trkpt lat="45.24402" lon="5.5419">
        <ele>1045</ele>
        <time>2012-03-31T10:45:16Z</time>
      </trkpt>
      <trkpt lat="45.24408" lon="5.54192">
        <ele>1045</ele>
        <time>2012-03-31T10:45:18Z</time>
      </trkpt>
      <trkpt lat="45.24415" lon="5.54196">
        <ele>1046</ele>
        <time>2012-03-31T10:45:21Z</time>
      </trkpt>
      <trkpt lat="45.24423" lon="5.54198">
        <ele>1041</ele>
        <time>2012-03-31T10:45:24Z</time>
      </trkpt>
      <trkpt lat="45.24432" lon="5.542">
        <ele>1038</ele>
        <time>2012-03-31T10:45:27Z</time>
      </trkpt>
      <trkpt lat="45.2444" lon="5.54202">
        <ele>1047</ele>
        <time>2012-03-31T10:46:07Z</time>
      </trkpt>
      <trkpt lat="45.24441" lon="5.54203">
        <ele>1045</ele>
        <time>2012-03-31T10:46:08Z</time>
      </trkpt>
      <trkpt lat="45.24452" lon="5.54208">
        <ele>1042</ele>
        <time>2012-03-31T10:46:12Z</time>
      </trkpt>
      <trkpt lat="45.24459" lon="5.54211">
        <ele>1044</ele>
        <time>2012-03-31T10:46:14Z</time>
      </trkpt>
      <trkpt lat="45.24465" lon="5.54215">
        <ele>1042</ele>
        <time>2012-03-31T10:46:16Z</time>
      </trkpt>
      <trkpt lat="45.2447" lon="5.5422">
        <ele>1044</ele>
        <time>2012-03-31T10:46:18Z</time>
      </trkpt>
      <trkpt lat="45.24478" lon="5.54226">
        <ele>1048</ele>
        <time>2012-03-31T10:46:22Z</time>
      </trkpt>
      <trkpt lat="45.24484" lon="5.54231">
        <ele>1046</ele>
        <time>2012-03-31T10:46:23Z</time>
      </trkpt>
      <trkpt lat="45.24489" lon="5.54235">
        <ele>1037</ele>
        <time>2012-03-31T10:46:26Z</time>
      </trkpt>
      <trkpt lat="45.24495" lon="5.54235">
        <ele>1038</ele>
        <time>2012-03-31T10:46:26Z</time>
      </trkpt>
      <trkpt lat="45.24501" lon="5.54236">
        <ele>1038</ele>
        <time>2012-03-31T10:46:29Z</time>
      </trkpt>
      <trkpt lat="45.24508" lon="5.54238">
        <ele>1034</ele>
        <time>2012-03-31T10:46:30Z</time>
      </trkpt>
      <trkpt lat="45.24511" lon="5.54239">
        <ele>1034</ele>
        <time>2012-03-31T10:46:31Z</time>
      </trkpt>
      <trkpt lat="45.24517" lon="5.54242">
        <ele>1036</ele>
        <time>2012-03-31T10:46:31Z</time>
      </trkpt>
      <trkpt lat="45.24522" lon="5.54244">
        <ele>1036</ele>
        <time>2012-03-31T10:46:32Z</time>
      </trkpt>
      <trkpt lat="45.2453" lon="5.54246">
        <ele>1035</ele>
        <time>2012-03-31T10:46:34Z</time>
      </trkpt>
      <trkpt lat="45.24537" lon="5.54249">
        <ele>1036</ele>
        <time>2012-03-31T10:46:37Z</time>
      </trkpt>
      <trkpt lat="45.24544" lon="5.54255">
        <ele>1038</ele>
        <time>2012-03-31T10:46:39Z</time>
      </trkpt>
      <trkpt lat="45.24552" lon="5.5426">
        <ele>1042</ele>
        <time>2012-03-31T10:46:43Z</time>
      </trkpt>
      <trkpt lat="45.24559" lon="5.54265">
        <ele>1042</ele>
        <time>2012-03-31T10:46:46Z</time>
      </trkpt>
      <trkpt lat="45.24566" lon="5.54268">
        <ele>1040</ele>
        <time>2012-03-31T10:46:48Z</time>
      </trkpt>
      <trkpt lat="45.24572" lon="5.54273">
        <ele>1040</ele>
        <time>2012-03-31T10:46:51Z</time>
      </trkpt>
      <trkpt lat="45.24576" lon="5.54277">
        <ele>1039</ele>
        <time>2012-03-31T10:46:54Z</time>
      </trkpt>
      <trkpt lat="45.24581" lon="5.5428">
        <ele>1040</ele>
        <time>2012-03-31T10:46:55Z</time>
      </trkpt>
      <trkpt lat="45.24587" lon="5.54285">
        <ele>1040</ele>
        <time>2012-03-31T10:46:57Z</time>
      </trkpt>
      <trkpt lat="45.24593" lon="5.5429">
        <ele>1040</ele>
        <time>2012-03-31T10:46:58Z</time>
      </trkpt>
      <trkpt lat="45.24597" lon="5.54293">
        <ele>1040</ele>
        <time>2012-03-31T10:46:59Z</time>
      </trkpt>
      <trkpt lat="45.24604" lon="5.54299">
        <ele>1040</ele>
        <time>2012-03-31T10:47:00Z</time>
      </trkpt>
      <trkpt lat="45.24611" lon="5.54304">
        <ele>1038</ele>
        <time>2012-03-31T10:47:02Z</time>
      </trkpt>
      <trkpt lat="45.24617" lon="5.54308">
        <ele>1038</ele>
        <time>2012-03-31T10:47:04Z</time>
      </trkpt>
      <trkpt lat="45.24625" lon="5.5431">
        <ele>1037</ele>
        <time>2012-03-31T10:47:07Z</time>
      </trkpt>
      <trkpt lat="45.24627" lon="5.54311">
        <ele>1037</ele>
        <time>2012-03-31T10:47:08Z</time>
      </trkpt>
      <trkpt lat="45.24641" lon="5.54313">
        <ele>1036</ele>
        <time>2012-03-31T10:47:13Z</time>
      </trkpt>
      <trkpt lat="45.24648" lon="5.54313">
        <ele>1035</ele>
        <time>2012-03-31T10:47:15Z</time>
      </trkpt>
      <trkpt lat="45.24653" lon="5.54311">
        <ele>1033</ele>
        <time>2012-03-31T10:47:17Z</time>
      </trkpt>
      <trkpt lat="45.2466" lon="5.54311">
        <ele>1034</ele>
        <time>2012-03-31T10:47:19Z</time>
      </trkpt>
      <trkpt lat="45.24669" lon="5.54308">
        <ele>1033</ele>
        <time>2012-03-31T10:47:20Z</time>
      </trkpt>
      <trkpt lat="45.24676" lon="5.54307">
        <ele>1033</ele>
        <time>2012-03-31T10:47:23Z</time>
      </trkpt>
      <trkpt lat="45.24683" lon="5.54304">
        <ele>1034</ele>
        <time>2012-03-31T10:47:24Z</time>
      </trkpt>
      <trkpt lat="45.24689" lon="5.543">
        <ele>1033</ele>
        <time>2012-03-31T10:47:26Z</time>
      </trkpt>
      <trkpt lat="45.24695" lon="5.54296">
        <ele>1033</ele>
        <time>2012-03-31T10:47:29Z</time>
      </trkpt>
      <trkpt lat="45.24702" lon="5.54292">
        <ele>1033</ele>
        <time>2012-03-31T10:47:31Z</time>
      </trkpt>
      <trkpt lat="45.24708" lon="5.54283">
        <ele>1033</ele>
        <time>2012-03-31T10:47:34Z</time>
      </trkpt>
      <trkpt lat="45.24715" lon="5.54276">
        <ele>1034</ele>
        <time>2012-03-31T10:47:36Z</time>
      </trkpt>
      <trkpt lat="45.24722" lon="5.54272">
        <ele>1035</ele>
        <time>2012-03-31T10:47:39Z</time>
      </trkpt>
      <trkpt lat="45.24727" lon="5.54267">
        <ele>1035</ele>
        <time>2012-03-31T10:47:41Z</time>
      </trkpt>
      <trkpt lat="45.24734" lon="5.54259">
        <ele>1035</ele>
        <time>2012-03-31T10:47:44Z</time>
      </trkpt>
      <trkpt lat="45.24738" lon="5.54252">
        <ele>1034</ele>
        <time>2012-03-31T10:47:47Z</time>
      </trkpt>
      <trkpt lat="45.24744" lon="5.54246">
        <ele>1034</ele>
        <time>2012-03-31T10:47:50Z</time>
      </trkpt>
      <trkpt lat="45.2475" lon="5.54242">
        <ele>1045</ele>
        <time>2012-03-31T10:47:52Z</time>
      </trkpt>
      <trkpt lat="45.24756" lon="5.54238">
        <ele>1049</ele>
        <time>2012-03-31T10:47:54Z</time>
      </trkpt>
      <trkpt lat="45.24762" lon="5.54233">
        <ele>1048</ele>
        <time>2012-03-31T10:47:56Z</time>
      </trkpt>
      <trkpt lat="45.24769" lon="5.5423">
        <ele>1047</ele>
        <time>2012-03-31T10:47:58Z</time>
      </trkpt>
      <trkpt lat="45.24775" lon="5.5423">
        <ele>1047</ele>
        <time>2012-03-31T10:48:01Z</time>
      </trkpt>
      <trkpt lat="45.24781" lon="5.54238">
        <ele>1052</ele>
        <time>2012-03-31T10:48:06Z</time>
      </trkpt>
      <trkpt lat="45.24788" lon="5.54243">
        <ele>1045</ele>
        <time>2012-03-31T10:48:09Z</time>
      </trkpt>
      <trkpt lat="45.24791" lon="5.54241">
        <ele>1046</ele>
        <time>2012-03-31T10:48:10Z</time>
      </trkpt>
      <trkpt lat="45.24804" lon="5.54237">
        <ele>1043</ele>
        <time>2012-03-31T10:48:15Z</time>
      </trkpt>
      <trkpt lat="45.24812" lon="5.54238">
        <ele>1041</ele>
        <time>2012-03-31T10:48:19Z</time>
      </trkpt>
      <trkpt lat="45.2482" lon="5.54233">
        <ele>1037</ele>
        <time>2012-03-31T10:48:21Z</time>
      </trkpt>
      <trkpt lat="45.24826" lon="5.54233">
        <ele>1034</ele>
        <time>2012-03-31T10:48:22Z</time>
      </trkpt>
      <trkpt lat="45.24833" lon="5.54237">
        <ele>1025</ele>
        <time>2012-03-31T10:48:25Z</time>
      </trkpt>
      <trkpt lat="45.24838" lon="5.5424">
        <ele>1025</ele>
        <time>2012-03-31T10:48:27Z</time>
      </trkpt>
      <trkpt lat="45.24844" lon="5.54241">
        <ele>1023</ele>
        <time>2012-03-31T10:48:28Z</time>
      </trkpt>
      <trkpt lat="45.24853" lon="5.54243">
        <ele>1022</ele>
        <time>2012-03-31T10:48:31Z</time>
      </trkpt>
      <trkpt lat="45.24859" lon="5.54249">
        <ele>1019</ele>
        <time>2012-03-31T10:48:35Z</time>
      </trkpt>
      <trkpt lat="45.24862" lon="5.5426">
        <ele>1019</ele>
        <time>2012-03-31T10:48:39Z</time>
      </trkpt>
      <trkpt lat="45.24867" lon="5.5427">
        <ele>1017</ele>
        <time>2012-03-31T10:48:42Z</time>
      </trkpt>
      <trkpt lat="45.24869" lon="5.54282">
        <ele>1016</ele>
        <time>2012-03-31T10:48:47Z</time>
      </trkpt>
      <trkpt lat="45.24869" lon="5.54293">
        <ele>1016</ele>
        <time>2012-03-31T10:48:48Z</time>
      </trkpt>
      <trkpt lat="45.2487" lon="5.54302">
        <ele>1016</ele>
        <time>2012-03-31T10:48:50Z</time>
      </trkpt>
      <trkpt lat="45.24869" lon="5.54312">
        <ele>1018</ele>
        <time>2012-03-31T10:48:53Z</time>
      </trkpt>
      <trkpt lat="45.24867" lon="5.5432">
        <ele>1020</ele>
        <time>2012-03-31T10:48:55Z</time>
      </trkpt>
      <trkpt lat="45.24862" lon="5.54326">
        <ele>1020</ele>
        <time>2012-03-31T10:48:56Z</time>
      </trkpt>
      <trkpt lat="45.24857" lon="5.54331">
        <ele>1022</ele>
        <time>2012-03-31T10:48:59Z</time>
      </trkpt>
      <trkpt lat="45.2485" lon="5.54338">
        <ele>1016</ele>
        <time>2012-03-31T10:49:00Z</time>
      </trkpt>
      <trkpt lat="45.24844" lon="5.54343">
        <ele>1016</ele>
        <time>2012-03-31T10:49:03Z</time>
      </trkpt>
      <trkpt lat="45.24837" lon="5.54347">
        <ele>1016</ele>
        <time>2012-03-31T10:49:04Z</time>
      </trkpt>
      <trkpt lat="45.24829" lon="5.5435">
        <ele>1015</ele>
        <time>2012-03-31T10:49:06Z</time>
      </trkpt>
      <trkpt lat="45.24823" lon="5.54351">
        <ele>1014</ele>
        <time>2012-03-31T10:49:08Z</time>
      </trkpt>
      <trkpt lat="45.24815" lon="5.54349">
        <ele>1013</ele>
        <time>2012-03-31T10:49:11Z</time>
      </trkpt>
      <trkpt lat="45.24812" lon="5.54348">
        <ele>1013</ele>
        <time>2012-03-31T10:49:11Z</time>
      </trkpt>
      <trkpt lat="45.248" lon="5.54346">
        <ele>1012</ele>
        <time>2012-03-31T10:49:16Z</time>
      </trkpt>
      <trkpt lat="45.24793" lon="5.54347">
        <ele>1012</ele>
        <time>2012-03-31T10:49:18Z</time>
      </trkpt>
      <trkpt lat="45.24786" lon="5.54349">
        <ele>1012</ele>
        <time>2012-03-31T10:49:20Z</time>
      </trkpt>
      <trkpt lat="45.2478" lon="5.5435">
        <ele>1011</ele>
        <time>2012-03-31T10:49:23Z</time>
      </trkpt>
      <trkpt lat="45.24772" lon="5.54349">
        <ele>1014</ele>
        <time>2012-03-31T10:49:25Z</time>
      </trkpt>
      <trkpt lat="45.24765" lon="5.54348">
        <ele>1010</ele>
        <time>2012-03-31T10:49:29Z</time>
      </trkpt>
      <trkpt lat="45.24758" lon="5.5435">
        <ele>1009</ele>
        <time>2012-03-31T10:49:31Z</time>
      </trkpt>
      <trkpt lat="45.24751" lon="5.5435">
        <ele>1008</ele>
        <time>2012-03-31T10:49:34Z</time>
      </trkpt>
      <trkpt lat="45.24743" lon="5.54351">
        <ele>1011</ele>
        <time>2012-03-31T10:49:42Z</time>
      </trkpt>
      <trkpt lat="45.24734" lon="5.54349">
        <ele>1007</ele>
        <time>2012-03-31T10:49:45Z</time>
      </trkpt>
      <trkpt lat="45.24726" lon="5.54348">
        <ele>1008</ele>
        <time>2012-03-31T10:49:48Z</time>
      </trkpt>
      <trkpt lat="45.2472" lon="5.54348">
        <ele>1004</ele>
        <time>2012-03-31T10:49:51Z</time>
      </trkpt>
      <trkpt lat="45.24712" lon="5.54348">
        <ele>1003</ele>
        <time>2012-03-31T10:49:51Z</time>
      </trkpt>
      <trkpt lat="45.24705" lon="5.54349">
        <ele>1002</ele>
        <time>2012-03-31T10:49:54Z</time>
      </trkpt>
      <trkpt lat="45.247" lon="5.54349">
        <ele>1002</ele>
        <time>2012-03-31T10:49:54Z</time>
      </trkpt>
      <trkpt lat="45.24691" lon="5.54348">
        <ele>1001</ele>
        <time>2012-03-31T10:49:57Z</time>
      </trkpt>
      <trkpt lat="45.24685" lon="5.54346">
        <ele>1001</ele>
        <time>2012-03-31T10:49:59Z</time>
      </trkpt>
      <trkpt lat="45.24678" lon="5.54342">
        <ele>999</ele>
        <time>2012-03-31T10:50:01Z</time>
      </trkpt>
      <trkpt lat="45.24669" lon="5.5434">
        <ele>997</ele>
        <time>2012-03-31T10:50:03Z</time>
      </trkpt>
      <trkpt lat="45.2466" lon="5.54339">
        <ele>996</ele>
        <time>2012-03-31T10:50:07Z</time>
      </trkpt>
      <trkpt lat="45.24651" lon="5.54337">
        <ele>995</ele>
        <time>2012-03-31T10:50:09Z</time>
      </trkpt>
      <trkpt lat="45.24646" lon="5.54334">
        <ele>995</ele>
        <time>2012-03-31T10:50:11Z</time>
      </trkpt>
      <trkpt lat="45.24642" lon="5.54332">
        <ele>995</ele>
        <time>2012-03-31T10:50:12Z</time>
      </trkpt>
      <trkpt lat="45.24633" lon="5.5433">
        <ele>995</ele>
        <time>2012-03-31T10:50:15Z</time>
      </trkpt>
      <trkpt lat="45.24624" lon="5.54327">
        <ele>994</ele>
        <time>2012-03-31T10:50:17Z</time>
      </trkpt>
      <trkpt lat="45.2462" lon="5.54326">
        <ele>994</ele>
        <time>2012-03-31T10:50:18Z</time>
      </trkpt>
      <trkpt lat="45.24611" lon="5.54324">
        <ele>994</ele>
        <time>2012-03-31T10:50:20Z</time>
      </trkpt>
      <trkpt lat="45.24607" lon="5.54323">
        <ele>995</ele>
        <time>2012-03-31T10:50:21Z</time>
      </trkpt>
      <trkpt lat="45.24602" lon="5.54322">
        <ele>994</ele>
        <time>2012-03-31T10:50:22Z</time>
      </trkpt>
      <trkpt lat="45.24596" lon="5.54321">
        <ele>993</ele>
        <time>2012-03-31T10:50:23Z</time>
      </trkpt>
      <trkpt lat="45.24588" lon="5.54319">
        <ele>990</ele>
        <time>2012-03-31T10:50:26Z</time>
      </trkpt>
      <trkpt lat="45.2458" lon="5.54316">
        <ele>990</ele>
        <time>2012-03-31T10:50:27Z</time>
      </trkpt>
      <trkpt lat="45.24573" lon="5.54315">
        <ele>988</ele>
        <time>2012-03-31T10:50:31Z</time>
      </trkpt>
      <trkpt lat="45.24565" lon="5.54318">
        <ele>992</ele>
        <time>2012-03-31T10:50:33Z</time>
      </trkpt>
      <trkpt lat="45.24558" lon="5.54321">
        <ele>994</ele>
        <time>2012-03-31T10:50:35Z</time>
      </trkpt>
      <trkpt lat="45.24551" lon="5.54322">
        <ele>995</ele>
        <time>2012-03-31T10:50:38Z</time>
      </trkpt>
      <trkpt lat="45.24545" lon="5.54323">
        <ele>994</ele>
        <time>2012-03-31T10:50:39Z</time>
      </trkpt>
      <trkpt lat="45.24537" lon="5.54325">
        <ele>993</ele>
        <time>2012-03-31T10:50:43Z</time>
      </trkpt>
      <trkpt lat="45.2453" lon="5.54326">
        <ele>994</ele>
        <time>2012-03-31T10:50:45Z</time>
      </trkpt>
      <trkpt lat="45.24522" lon="5.54326">
        <ele>995</ele>
        <time>2012-03-31T10:50:48Z</time>
      </trkpt>
      <trkpt lat="45.24516" lon="5.54325">
        <ele>997</ele>
        <time>2012-03-31T10:50:50Z</time>
      </trkpt>
      <trkpt lat="45.2451" lon="5.54325">
        <ele>996</ele>
        <time>2012-03-31T10:50:52Z</time>
      </trkpt>
      <trkpt lat="45.24501" lon="5.54324">
        <ele>996</ele>
        <time>2012-03-31T10:50:56Z</time>
      </trkpt>
      <trkpt lat="45.24496" lon="5.54324">
        <ele>995</ele>
        <time>2012-03-31T10:50:58Z</time>
      </trkpt>
      <trkpt lat="45.24489" lon="5.54324">
        <ele>994</ele>
        <time>2012-03-31T10:51:01Z</time>
      </trkpt>
      <trkpt lat="45.24481" lon="5.54324">
        <ele>994</ele>
        <time>2012-03-31T10:51:02Z</time>
      </trkpt>
      <trkpt lat="45.24472" lon="5.54321">
        <ele>996</ele>
        <time>2012-03-31T10:51:05Z</time>
      </trkpt>
      <trkpt lat="45.24466" lon="5.54319">
        <ele>997</ele>
        <time>2012-03-31T10:51:09Z</time>
      </trkpt>
      <trkpt lat="45.2446" lon="5.54317">
        <ele>996</ele>
        <time>2012-03-31T10:51:10Z</time>
      </trkpt>
      <trkpt lat="45.24453" lon="5.54312">
        <ele>996</ele>
        <time>2012-03-31T10:51:12Z</time>
      </trkpt>
      <trkpt lat="45.24448" lon="5.54308">
        <ele>996</ele>
        <time>2012-03-31T10:51:13Z</time>
      </trkpt>
      <trkpt lat="45.24443" lon="5.54306">
        <ele>995</ele>
        <time>2012-03-31T10:51:14Z</time>
      </trkpt>
      <trkpt lat="45.24436" lon="5.54302">
        <ele>993</ele>
        <time>2012-03-31T10:51:17Z</time>
      </trkpt>
      <trkpt lat="45.2443" lon="5.54301">
        <ele>993</ele>
        <time>2012-03-31T10:51:18Z</time>
      </trkpt>
      <trkpt lat="45.24422" lon="5.54299">
        <ele>993</ele>
        <time>2012-03-31T10:51:19Z</time>
      </trkpt>
      <trkpt lat="45.24415" lon="5.54297">
        <ele>994</ele>
        <time>2012-03-31T10:51:21Z</time>
      </trkpt>
      <trkpt lat="45.24411" lon="5.54297">
        <ele>994</ele>
        <time>2012-03-31T10:51:22Z</time>
      </trkpt>
      <trkpt lat="45.24403" lon="5.54298">
        <ele>993</ele>
        <time>2012-03-31T10:51:24Z</time>
      </trkpt>
      <trkpt lat="45.24394" lon="5.54298">
        <ele>994</ele>
        <time>2012-03-31T10:51:26Z</time>
      </trkpt>
      <trkpt lat="45.24386" lon="5.54299">
        <ele>992</ele>
        <time>2012-03-31T10:51:28Z</time>
      </trkpt>
      <trkpt lat="45.24377" lon="5.54298">
        <ele>992</ele>
        <time>2012-03-31T10:51:30Z</time>
      </trkpt>
      <trkpt lat="45.2437" lon="5.54299">
        <ele>986</ele>
        <time>2012-03-31T10:51:32Z</time>
      </trkpt>
      <trkpt lat="45.24363" lon="5.54303">
        <ele>989</ele>
        <time>2012-03-31T10:51:35Z</time>
      </trkpt>
      <trkpt lat="45.24356" lon="5.54307">
        <ele>990</ele>
        <time>2012-03-31T10:51:37Z</time>
      </trkpt>
      <trkpt lat="45.2435" lon="5.54312">
        <ele>996</ele>
        <time>2012-03-31T10:51:38Z</time>
      </trkpt>
      <trkpt lat="45.24345" lon="5.54319">
        <ele>1001</ele>
        <time>2012-03-31T10:51:40Z</time>
      </trkpt>
      <trkpt lat="45.2434" lon="5.54328">
        <ele>995</ele>
        <time>2012-03-31T10:51:43Z</time>
      </trkpt>
      <trkpt lat="45.24337" lon="5.54338">
        <ele>993</ele>
        <time>2012-03-31T10:51:46Z</time>
      </trkpt>
      <trkpt lat="45.24336" lon="5.5435">
        <ele>991</ele>
        <time>2012-03-31T10:51:49Z</time>
      </trkpt>
      <trkpt lat="45.24337" lon="5.54361">
        <ele>993</ele>
        <time>2012-03-31T10:51:52Z</time>
      </trkpt>
      <trkpt lat="45.2434" lon="5.54368">
        <ele>994</ele>
        <time>2012-03-31T10:51:55Z</time>
      </trkpt>
      <trkpt lat="45.24345" lon="5.54378">
        <ele>986</ele>
        <time>2012-03-31T10:51:57Z</time>
      </trkpt>
      <trkpt lat="45.24348" lon="5.54386">
        <ele>986</ele>
        <time>2012-03-31T10:51:59Z</time>
      </trkpt>
      <trkpt lat="45.24351" lon="5.54394">
        <ele>984</ele>
        <time>2012-03-31T10:52:01Z</time>
      </trkpt>
      <trkpt lat="45.24355" lon="5.54401">
        <ele>984</ele>
        <time>2012-03-31T10:52:02Z</time>
      </trkpt>
      <trkpt lat="45.24357" lon="5.5441">
        <ele>982</ele>
        <time>2012-03-31T10:52:04Z</time>
      </trkpt>
      <trkpt lat="45.2436" lon="5.54421">
        <ele>977</ele>
        <time>2012-03-31T10:52:07Z</time>
      </trkpt>
      <trkpt lat="45.24363" lon="5.54429">
        <ele>968</ele>
        <time>2012-03-31T10:52:10Z</time>
      </trkpt>
      <trkpt lat="45.24365" lon="5.54437">
        <ele>966</ele>
        <time>2012-03-31T10:52:11Z</time>
      </trkpt>
      <trkpt lat="45.24367" lon="5.54448">
        <ele>969</ele>
        <time>2012-03-31T10:52:14Z</time>
      </trkpt>
      <trkpt lat="45.24367" lon="5.54451">
        <ele>969</ele>
        <time>2012-03-31T10:52:15Z</time>
      </trkpt>
      <trkpt lat="45.24368" lon="5.5447">
        <ele>966</ele>
        <time>2012-03-31T10:52:22Z</time>
      </trkpt>
      <trkpt lat="45.2437" lon="5.54482">
        <ele>970</ele>
        <time>2012-03-31T10:52:25Z</time>
      </trkpt>
      <trkpt lat="45.24373" lon="5.54491">
        <ele>967</ele>
        <time>2012-03-31T10:52:27Z</time>
      </trkpt>
      <trkpt lat="45.24376" lon="5.54501">
        <ele>958</ele>
        <time>2012-03-31T10:52:30Z</time>
      </trkpt>
      <trkpt lat="45.24379" lon="5.54511">
        <ele>958</ele>
        <time>2012-03-31T10:52:33Z</time>
      </trkpt>
      <trkpt lat="45.24381" lon="5.54521">
        <ele>957</ele>
        <time>2012-03-31T10:52:35Z</time>
      </trkpt>
      <trkpt lat="45.24382" lon="5.5453">
        <ele>956</ele>
        <time>2012-03-31T10:52:37Z</time>
      </trkpt>
      <trkpt lat="45.24385" lon="5.54539">
        <ele>956</ele>
        <time>2012-03-31T10:52:39Z</time>
      </trkpt>
      <trkpt lat="45.24389" lon="5.54549">
        <ele>960</ele>
        <time>2012-03-31T10:52:42Z</time>
      </trkpt>
      <trkpt lat="45.24392" lon="5.5456">
        <ele>960</ele>
        <time>2012-03-31T10:52:45Z</time>
      </trkpt>
      <trkpt lat="45.24392" lon="5.54573">
        <ele>962</ele>
        <time>2012-03-31T10:52:48Z</time>
      </trkpt>
      <trkpt lat="45.24392" lon="5.54581">
        <ele>963</ele>
        <time>2012-03-31T10:52:50Z</time>
      </trkpt>
      <trkpt lat="45.24393" lon="5.54587">
        <ele>963</ele>
        <time>2012-03-31T10:52:51Z</time>
      </trkpt>
      <trkpt lat="45.24395" lon="5.54594">
        <ele>963</ele>
        <time>2012-03-31T10:52:52Z</time>
      </trkpt>
      <trkpt lat="45.24399" lon="5.54603">
        <ele>963</ele>
        <time>2012-03-31T10:52:55Z</time>
      </trkpt>
      <trkpt lat="45.24404" lon="5.54613">
        <ele>963</ele>
        <time>2012-03-31T10:52:56Z</time>
      </trkpt>
      <trkpt lat="45.24407" lon="5.54623">
        <ele>966</ele>
        <time>2012-03-31T10:52:58Z</time>
      </trkpt>
      <trkpt lat="45.24409" lon="5.54631">
        <ele>967</ele>
        <time>2012-03-31T10:53:00Z</time>
      </trkpt>
      <trkpt lat="45.24412" lon="5.54639">
        <ele>964</ele>
        <time>2012-03-31T10:53:01Z</time>
      </trkpt>
      <trkpt lat="45.24414" lon="5.54649">
        <ele>965</ele>
        <time>2012-03-31T10:53:03Z</time>
      </trkpt>
      <trkpt lat="45.24417" lon="5.54655">
        <ele>965</ele>
        <time>2012-03-31T10:53:05Z</time>
      </trkpt>
      <trkpt lat="45.24419" lon="5.54661">
        <ele>965</ele>
        <time>2012-03-31T10:53:06Z</time>
      </trkpt>
      <trkpt lat="45.24422" lon="5.54666">
        <ele>964</ele>
        <time>2012-03-31T10:53:06Z</time>
      </trkpt>
      <trkpt lat="45.24425" lon="5.54672">
        <ele>964</ele>
        <time>2012-03-31T10:53:07Z</time>
      </trkpt>
      <trkpt lat="45.2443" lon="5.54683">
        <ele>962</ele>
        <time>2012-03-31T10:53:09Z</time>
      </trkpt>
      <trkpt lat="45.24433" lon="5.54692">
        <ele>959</ele>
        <time>2012-03-31T10:53:11Z</time>
      </trkpt>
      <trkpt lat="45.24437" lon="5.54701">
        <ele>957</ele>
        <time>2012-03-31T10:53:14Z</time>
      </trkpt>
      <trkpt lat="45.2444" lon="5.54708">
        <ele>959</ele>
        <time>2012-03-31T10:53:15Z</time>
      </trkpt>
      <trkpt lat="45.24444" lon="5.54717">
        <ele>973</ele>
        <time>2012-03-31T10:53:16Z</time>
      </trkpt>
      <trkpt lat="45.2445" lon="5.54726">
        <ele>971</ele>
        <time>2012-03-31T10:53:20Z</time>
      </trkpt>
      <trkpt lat="45.24456" lon="5.54733">
        <ele>975</ele>
        <time>2012-03-31T10:53:27Z</time>
      </trkpt>
      <trkpt lat="45.24463" lon="5.5474">
        <ele>977</ele>
        <time>2012-03-31T10:53:36Z</time>
      </trkpt>
      <trkpt lat="45.24468" lon="5.54744">
        <ele>980</ele>
        <time>2012-03-31T10:53:38Z</time>
      </trkpt>
      <trkpt lat="45.24473" lon="5.54748">
        <ele>981</ele>
        <time>2012-03-31T10:53:40Z</time>
      </trkpt>
      <trkpt lat="45.24481" lon="5.54754">
        <ele>980</ele>
        <time>2012-03-31T10:53:42Z</time>
      </trkpt>
      <trkpt lat="45.24488" lon="5.5476">
        <ele>980</ele>
        <time>2012-03-31T10:53:44Z</time>
      </trkpt>
      <trkpt lat="45.24495" lon="5.54766">
        <ele>986</ele>
        <time>2012-03-31T10:53:46Z</time>
      </trkpt>
      <trkpt lat="45.24502" lon="5.5477">
        <ele>987</ele>
        <time>2012-03-31T10:53:48Z</time>
      </trkpt>
      <trkpt lat="45.24508" lon="5.54774">
        <ele>987</ele>
        <time>2012-03-31T10:53:50Z</time>
      </trkpt>
      <trkpt lat="45.24514" lon="5.54777">
        <ele>988</ele>
        <time>2012-03-31T10:53:52Z</time>
      </trkpt>
      <trkpt lat="45.24519" lon="5.5478">
        <ele>988</ele>
        <time>2012-03-31T10:53:54Z</time>
      </trkpt>
      <trkpt lat="45.24526" lon="5.54782">
        <ele>986</ele>
        <time>2012-03-31T10:53:56Z</time>
      </trkpt>
      <trkpt lat="45.24534" lon="5.54783">
        <ele>996</ele>
        <time>2012-03-31T10:53:58Z</time>
      </trkpt>
      <trkpt lat="45.24542" lon="5.54785">
        <ele>1003</ele>
        <time>2012-03-31T10:54:01Z</time>
      </trkpt>
      <trkpt lat="45.24551" lon="5.54787">
        <ele>1000</ele>
        <time>2012-03-31T10:54:04Z</time>
      </trkpt>
      <trkpt lat="45.24559" lon="5.54787">
        <ele>997</ele>
        <time>2012-03-31T10:54:07Z</time>
      </trkpt>
      <trkpt lat="45.24561" lon="5.54788">
        <ele>997</ele>
        <time>2012-03-31T10:54:08Z</time>
      </trkpt>
      <trkpt lat="45.24562" lon="5.54806">
        <ele>1004</ele>
        <time>2012-03-31T10:54:09Z</time>
      </trkpt>
      <trkpt lat="45.24569" lon="5.54804">
        <ele>997</ele>
        <time>2012-03-31T10:54:11Z</time>
      </trkpt>
      <trkpt lat="45.24576" lon="5.54803">
        <ele>1000</ele>
        <time>2012-03-31T10:54:13Z</time>
      </trkpt>
      <trkpt lat="45.24583" lon="5.54803">
        <ele>998</ele>
        <time>2012-03-31T10:54:16Z</time>
      </trkpt>
      <trkpt lat="45.24586" lon="5.54804">
        <ele>997</ele>
        <time>2012-03-31T10:54:17Z</time>
      </trkpt>
      <trkpt lat="45.24599" lon="5.54811">
        <ele>991</ele>
        <time>2012-03-31T10:54:20Z</time>
      </trkpt>
      <trkpt lat="45.24607" lon="5.54816">
        <ele>987</ele>
        <time>2012-03-31T10:54:29Z</time>
      </trkpt>
      <trkpt lat="45.24608" lon="5.54826">
        <ele>983</ele>
        <time>2012-03-31T10:54:32Z</time>
      </trkpt>
      <trkpt lat="45.24606" lon="5.54838">
        <ele>978</ele>
        <time>2012-03-31T10:54:35Z</time>
      </trkpt>
      <trkpt lat="45.24601" lon="5.54847">
        <ele>975</ele>
        <time>2012-03-31T10:54:40Z</time>
      </trkpt>
      <trkpt lat="45.24598" lon="5.54857">
        <ele>980</ele>
        <time>2012-03-31T10:54:43Z</time>
      </trkpt>
      <trkpt lat="45.24597" lon="5.54866">
        <ele>975</ele>
        <time>2012-03-31T10:54:46Z</time>
      </trkpt>
      <trkpt lat="45.24597" lon="5.54874">
        <ele>969</ele>
        <time>2012-03-31T10:54:47Z</time>
      </trkpt>
      <trkpt lat="45.246" lon="5.54884">
        <ele>966</ele>
        <time>2012-03-31T10:54:48Z</time>
      </trkpt>
      <trkpt lat="45.24602" lon="5.54894">
        <ele>966</ele>
        <time>2012-03-31T10:54:51Z</time>
      </trkpt>
      <trkpt lat="45.24604" lon="5.54901">
        <ele>966</ele>
        <time>2012-03-31T10:54:51Z</time>
      </trkpt>
      <trkpt lat="45.24606" lon="5.54907">
        <ele>966</ele>
        <time>2012-03-31T10:54:52Z</time>
      </trkpt>
      <trkpt lat="45.24611" lon="5.54917">
        <ele>965</ele>
        <time>2012-03-31T10:54:54Z</time>
      </trkpt>
      <trkpt lat="45.24614" lon="5.54924">
        <ele>965</ele>
        <time>2012-03-31T10:54:56Z</time>
      </trkpt>
      <trkpt lat="45.2462" lon="5.54933">
        <ele>964</ele>
        <time>2012-03-31T10:54:59Z</time>
      </trkpt>
      <trkpt lat="45.24624" lon="5.54942">
        <ele>979</ele>
        <time>2012-03-31T10:55:06Z</time>
      </trkpt>
      <trkpt lat="45.24627" lon="5.54954">
        <ele>983</ele>
        <time>2012-03-31T10:55:10Z</time>
      </trkpt>
      <trkpt lat="45.24634" lon="5.5496">
        <ele>982</ele>
        <time>2012-03-31T10:55:13Z</time>
      </trkpt>
      <trkpt lat="45.2464" lon="5.54964">
        <ele>982</ele>
        <time>2012-03-31T10:55:14Z</time>
      </trkpt>
      <trkpt lat="45.24646" lon="5.54971">
        <ele>979</ele>
        <time>2012-03-31T10:55:16Z</time>
      </trkpt>
      <trkpt lat="45.2465" lon="5.54975">
        <ele>975</ele>
        <time>2012-03-31T10:55:17Z</time>
      </trkpt>
      <trkpt lat="45.24659" lon="5.54983">
        <ele>974</ele>
        <time>2012-03-31T10:55:21Z</time>
      </trkpt>
      <trkpt lat="45.24666" lon="5.54989">
        <ele>974</ele>
        <time>2012-03-31T10:55:22Z</time>
      </trkpt>
      <trkpt lat="45.24671" lon="5.54994">
        <ele>974</ele>
        <time>2012-03-31T10:55:24Z</time>
      </trkpt>
      <trkpt lat="45.24679" lon="5.55001">
        <ele>973</ele>
        <time>2012-03-31T10:55:27Z</time>
      </trkpt>
      <trkpt lat="45.24685" lon="5.55005">
        <ele>973</ele>
        <time>2012-03-31T10:55:29Z</time>
      </trkpt>
      <trkpt lat="45.2469" lon="5.55008">
        <ele>972</ele>
        <time>2012-03-31T10:55:31Z</time>
      </trkpt>
      <trkpt lat="45.24699" lon="5.55012">
        <ele>969</ele>
        <time>2012-03-31T10:55:33Z</time>
      </trkpt>
      <trkpt lat="45.24706" lon="5.55016">
        <ele>967</ele>
        <time>2012-03-31T10:55:35Z</time>
      </trkpt>
      <trkpt lat="45.24712" lon="5.5502">
        <ele>967</ele>
        <time>2012-03-31T10:55:37Z</time>
      </trkpt>
      <trkpt lat="45.24717" lon="5.55027">
        <ele>966</ele>
        <time>2012-03-31T10:55:37Z</time>
      </trkpt>
      <trkpt lat="45.24724" lon="5.55032">
        <ele>967</ele>
        <time>2012-03-31T10:55:39Z</time>
      </trkpt>
      <trkpt lat="45.2473" lon="5.55036">
        <ele>967</ele>
        <time>2012-03-31T10:55:41Z</time>
      </trkpt>
      <trkpt lat="45.24738" lon="5.55039">
        <ele>966</ele>
        <time>2012-03-31T10:55:45Z</time>
      </trkpt>
      <trkpt lat="45.24745" lon="5.55042">
        <ele>969</ele>
        <time>2012-03-31T10:55:47Z</time>
      </trkpt>
      <trkpt lat="45.24754" lon="5.55045">
        <ele>970</ele>
        <time>2012-03-31T10:55:50Z</time>
      </trkpt>
      <trkpt lat="45.24759" lon="5.55047">
        <ele>970</ele>
        <time>2012-03-31T10:55:52Z</time>
      </trkpt>
      <trkpt lat="45.24765" lon="5.55051">
        <ele>982</ele>
        <time>2012-03-31T10:55:54Z</time>
      </trkpt>
      <trkpt lat="45.24773" lon="5.55045">
        <ele>979</ele>
        <time>2012-03-31T10:55:55Z</time>
      </trkpt>
      <trkpt lat="45.24779" lon="5.55048">
        <ele>977</ele>
        <time>2012-03-31T10:55:57Z</time>
      </trkpt>
      <trkpt lat="45.24785" lon="5.55053">
        <ele>971</ele>
        <time>2012-03-31T10:55:59Z</time>
      </trkpt>
      <trkpt lat="45.2479" lon="5.55055">
        <ele>966</ele>
        <time>2012-03-31T10:56:00Z</time>
      </trkpt>
      <trkpt lat="45.24796" lon="5.55059">
        <ele>962</ele>
        <time>2012-03-31T10:56:02Z</time>
      </trkpt>
      <trkpt lat="45.24803" lon="5.55063">
        <ele>957</ele>
        <time>2012-03-31T10:56:05Z</time>
      </trkpt>
      <trkpt lat="45.2481" lon="5.55067">
        <ele>954</ele>
        <time>2012-03-31T10:56:06Z</time>
      </trkpt>
      <trkpt lat="45.24815" lon="5.55076">
        <ele>952</ele>
        <time>2012-03-31T10:56:09Z</time>
      </trkpt>
      <trkpt lat="45.24816" lon="5.55085">
        <ele>945</ele>
        <time>2012-03-31T10:56:11Z</time>
      </trkpt>
      <trkpt lat="45.24818" lon="5.55093">
        <ele>942</ele>
        <time>2012-03-31T10:56:13Z</time>
      </trkpt>
      <trkpt lat="45.24822" lon="5.55102">
        <ele>942</ele>
        <time>2012-03-31T10:56:17Z</time>
      </trkpt>
      <trkpt lat="45.24822" lon="5.55104">
        <ele>945</ele>
        <time>2012-03-31T10:56:18Z</time>
      </trkpt>
    </trkseg>
  </trk>
</gpx>